<?xml version="1.0" encoding="UTF-8" standalone="no" ?>
<gpx xmlns="http://www.topografix.com/GPX/1/1" xmlns:xsi="http://www.w3.org/2001/XMLSchema-instance" xsi:schemaLocation="http://www.topografix.com/GPX/1/1 http://www.topografix.com/GPX/1/1/gpx.xsd" version="1.1" creator="VisuGPX - https://www.visugpx.com">
  <metadata>
    <name>jeudi 19 février2015  moulin de talives</name>
    <desc><![CDATA[mouliè lac_ tote_ cayssat]]></desc>
  </metadata>
  <wpt lat="44.24542" lon="0.60281">
    <ele>69.12109375</ele>
    <name><![CDATA[Faure]]></name>
    <desc><![CDATA[Faure]]></desc>
    <cmt><![CDATA[Faure]]></cmt>
  </wpt>
  <wpt lat="44.25744" lon="0.62969">
    <ele>160</ele>
    <name><![CDATA[JEUDI 19 février 2015]]></name>
    <desc><![CDATA[Hauteur de 160 m]]></desc>
    <cmt><![CDATA[Hauteur de 160 m]]></cmt>
  </wpt>
  <wpt lat="44.24377" lon="0.60092">
    <ele>67.421875</ele>
    <name><![CDATA[La Faurasse]]></name>
    <desc><![CDATA[La Faurasse]]></desc>
    <cmt><![CDATA[La Faurasse]]></cmt>
  </wpt>
  <wpt lat="44.25408" lon="0.6297">
    <ele>97</ele>
    <name><![CDATA[La Ségone]]></name>
    <desc><![CDATA[La Ségone]]></desc>
    <cmt><![CDATA[La Ségone]]></cmt>
  </wpt>
  <wpt lat="44.2543" lon="0.62058">
    <ele>117.36328125</ele>
    <name><![CDATA[Lacaze]]></name>
    <desc><![CDATA[Lacaze]]></desc>
    <cmt><![CDATA[Lacaze]]></cmt>
  </wpt>
  <wpt lat="44.24448" lon="0.63139">
    <ele>194.16015625</ele>
    <name><![CDATA[Rapinet1]]></name>
    <desc><![CDATA[Rapinet]]></desc>
    <cmt><![CDATA[Rapinet]]></cmt>
  </wpt>
  <trk>
    <name><![CDATA[ACTIVE LOG 001]]></name>
    <trkseg>
      <trkpt lat="44.24391" lon="0.6345">
        <ele>197.20751953125</ele>
        <time>2015-02-19T13:18:59Z</time>
      </trkpt>
      <trkpt lat="44.2439" lon="0.63446">
        <ele>187.59436035156</ele>
        <time>2015-02-19T13:20:39Z</time>
      </trkpt>
      <trkpt lat="44.24384" lon="0.63432">
        <ele>188.55578613281</ele>
        <time>2015-02-19T13:21:24Z</time>
      </trkpt>
      <trkpt lat="44.24383" lon="0.63428">
        <ele>189.03637695312</ele>
        <time>2015-02-19T13:21:26Z</time>
      </trkpt>
      <trkpt lat="44.24383" lon="0.63418">
        <ele>188.55578613281</ele>
        <time>2015-02-19T13:21:37Z</time>
      </trkpt>
      <trkpt lat="44.24386" lon="0.63416">
        <ele>189.03637695312</ele>
        <time>2015-02-19T13:21:40Z</time>
      </trkpt>
      <trkpt lat="44.2441" lon="0.63398">
        <ele>189.99768066406</ele>
        <time>2015-02-19T13:22:04Z</time>
      </trkpt>
      <trkpt lat="44.24436" lon="0.63372">
        <ele>190.47839355469</ele>
        <time>2015-02-19T13:22:32Z</time>
      </trkpt>
      <trkpt lat="44.24452" lon="0.63355">
        <ele>190.47839355469</ele>
        <time>2015-02-19T13:22:49Z</time>
      </trkpt>
      <trkpt lat="44.24474" lon="0.63334">
        <ele>190.958984375</ele>
        <time>2015-02-19T13:23:10Z</time>
      </trkpt>
      <trkpt lat="44.24489" lon="0.63307">
        <ele>189.51696777344</ele>
        <time>2015-02-19T13:23:31Z</time>
      </trkpt>
      <trkpt lat="44.24491" lon="0.63304">
        <ele>189.51696777344</ele>
        <time>2015-02-19T13:23:33Z</time>
      </trkpt>
      <trkpt lat="44.24495" lon="0.63293">
        <ele>189.51696777344</ele>
        <time>2015-02-19T13:23:41Z</time>
      </trkpt>
      <trkpt lat="44.24499" lon="0.63277">
        <ele>189.51696777344</ele>
        <time>2015-02-19T13:23:51Z</time>
      </trkpt>
      <trkpt lat="44.24502" lon="0.63269">
        <ele>189.51696777344</ele>
        <time>2015-02-19T13:23:56Z</time>
      </trkpt>
      <trkpt lat="44.24503" lon="0.63266">
        <ele>189.99768066406</ele>
        <time>2015-02-19T13:23:58Z</time>
      </trkpt>
      <trkpt lat="44.24506" lon="0.63258">
        <ele>189.51696777344</ele>
        <time>2015-02-19T13:24:04Z</time>
      </trkpt>
      <trkpt lat="44.24514" lon="0.63228">
        <ele>189.99768066406</ele>
        <time>2015-02-19T13:24:25Z</time>
      </trkpt>
      <trkpt lat="44.24524" lon="0.63199">
        <ele>190.958984375</ele>
        <time>2015-02-19T13:24:47Z</time>
      </trkpt>
      <trkpt lat="44.2453" lon="0.63184">
        <ele>190.958984375</ele>
        <time>2015-02-19T13:24:58Z</time>
      </trkpt>
      <trkpt lat="44.24532" lon="0.63179">
        <ele>190.958984375</ele>
        <time>2015-02-19T13:25:02Z</time>
      </trkpt>
      <trkpt lat="44.24543" lon="0.63139">
        <ele>191.43957519531</ele>
        <time>2015-02-19T13:25:28Z</time>
      </trkpt>
      <trkpt lat="44.24548" lon="0.63086">
        <ele>190.958984375</ele>
        <time>2015-02-19T13:26:01Z</time>
      </trkpt>
      <trkpt lat="44.24549" lon="0.63045">
        <ele>189.99768066406</ele>
        <time>2015-02-19T13:26:28Z</time>
      </trkpt>
      <trkpt lat="44.2455" lon="0.63008">
        <ele>187.11376953125</ele>
        <time>2015-02-19T13:26:51Z</time>
      </trkpt>
      <trkpt lat="44.24551" lon="0.62985">
        <ele>187.11376953125</ele>
        <time>2015-02-19T13:27:06Z</time>
      </trkpt>
      <trkpt lat="44.24554" lon="0.62982">
        <ele>186.63317871094</ele>
        <time>2015-02-19T13:27:09Z</time>
      </trkpt>
      <trkpt lat="44.24584" lon="0.62974">
        <ele>184.22985839844</ele>
        <time>2015-02-19T13:27:35Z</time>
      </trkpt>
      <trkpt lat="44.24606" lon="0.62969">
        <ele>186.15246582031</ele>
        <time>2015-02-19T13:27:56Z</time>
      </trkpt>
      <trkpt lat="44.24632" lon="0.62964">
        <ele>189.03637695312</ele>
        <time>2015-02-19T13:28:19Z</time>
      </trkpt>
      <trkpt lat="44.24655" lon="0.62957">
        <ele>187.59436035156</ele>
        <time>2015-02-19T13:28:40Z</time>
      </trkpt>
      <trkpt lat="44.24672" lon="0.62951">
        <ele>189.03637695312</ele>
        <time>2015-02-19T13:28:55Z</time>
      </trkpt>
      <trkpt lat="44.2469" lon="0.62945">
        <ele>184.22985839844</ele>
        <time>2015-02-19T13:29:12Z</time>
      </trkpt>
      <trkpt lat="44.24705" lon="0.6294">
        <ele>181.82641601562</ele>
        <time>2015-02-19T13:29:26Z</time>
      </trkpt>
      <trkpt lat="44.24723" lon="0.62934">
        <ele>183.26843261719</ele>
        <time>2015-02-19T13:29:40Z</time>
      </trkpt>
      <trkpt lat="44.24739" lon="0.62925">
        <ele>184.22985839844</ele>
        <time>2015-02-19T13:29:56Z</time>
      </trkpt>
      <trkpt lat="44.24754" lon="0.62917">
        <ele>182.78784179688</ele>
        <time>2015-02-19T13:30:11Z</time>
      </trkpt>
      <trkpt lat="44.24754" lon="0.62916">
        <ele>182.78784179688</ele>
        <time>2015-02-19T13:30:12Z</time>
      </trkpt>
      <trkpt lat="44.24762" lon="0.6291">
        <ele>178.94262695312</ele>
        <time>2015-02-19T13:30:24Z</time>
      </trkpt>
      <trkpt lat="44.24772" lon="0.62901">
        <ele>176.53930664062</ele>
        <time>2015-02-19T13:30:39Z</time>
      </trkpt>
      <trkpt lat="44.24781" lon="0.62905">
        <ele>177.98120117188</ele>
        <time>2015-02-19T13:30:51Z</time>
      </trkpt>
      <trkpt lat="44.24784" lon="0.62907">
        <ele>177.50061035156</ele>
        <time>2015-02-19T13:30:54Z</time>
      </trkpt>
      <trkpt lat="44.24797" lon="0.62914">
        <ele>178.4619140625</ele>
        <time>2015-02-19T13:31:10Z</time>
      </trkpt>
      <trkpt lat="44.24813" lon="0.62921">
        <ele>174.13586425781</ele>
        <time>2015-02-19T13:31:28Z</time>
      </trkpt>
      <trkpt lat="44.24814" lon="0.62922">
        <ele>174.13586425781</ele>
        <time>2015-02-19T13:31:29Z</time>
      </trkpt>
      <trkpt lat="44.24822" lon="0.62919">
        <ele>171.73266601562</ele>
        <time>2015-02-19T13:31:37Z</time>
      </trkpt>
      <trkpt lat="44.24834" lon="0.62908">
        <ele>171.25207519531</ele>
        <time>2015-02-19T13:31:53Z</time>
      </trkpt>
      <trkpt lat="44.24845" lon="0.62904">
        <ele>170.29064941406</ele>
        <time>2015-02-19T13:32:04Z</time>
      </trkpt>
      <trkpt lat="44.24863" lon="0.62891">
        <ele>169.81005859375</ele>
        <time>2015-02-19T13:32:24Z</time>
      </trkpt>
      <trkpt lat="44.24871" lon="0.62884">
        <ele>168.84875488281</ele>
        <time>2015-02-19T13:32:37Z</time>
      </trkpt>
      <trkpt lat="44.24881" lon="0.62876">
        <ele>165.48413085938</ele>
        <time>2015-02-19T13:32:53Z</time>
      </trkpt>
      <trkpt lat="44.2489" lon="0.6287">
        <ele>162.60009765625</ele>
        <time>2015-02-19T13:33:05Z</time>
      </trkpt>
      <trkpt lat="44.249" lon="0.62861">
        <ele>159.71618652344</ele>
        <time>2015-02-19T13:33:18Z</time>
      </trkpt>
      <trkpt lat="44.24913" lon="0.62851">
        <ele>157.79357910156</ele>
        <time>2015-02-19T13:33:31Z</time>
      </trkpt>
      <trkpt lat="44.24929" lon="0.62839">
        <ele>157.79357910156</ele>
        <time>2015-02-19T13:33:47Z</time>
      </trkpt>
      <trkpt lat="44.2494" lon="0.62829">
        <ele>156.83215332031</ele>
        <time>2015-02-19T13:34:02Z</time>
      </trkpt>
      <trkpt lat="44.2495" lon="0.6282">
        <ele>154.42895507812</ele>
        <time>2015-02-19T13:34:16Z</time>
      </trkpt>
      <trkpt lat="44.24955" lon="0.62815">
        <ele>153.46765136719</ele>
        <time>2015-02-19T13:34:22Z</time>
      </trkpt>
      <trkpt lat="44.24968" lon="0.62805">
        <ele>152.98693847656</ele>
        <time>2015-02-19T13:34:37Z</time>
      </trkpt>
      <trkpt lat="44.2498" lon="0.62794">
        <ele>152.50634765625</ele>
        <time>2015-02-19T13:34:51Z</time>
      </trkpt>
      <trkpt lat="44.2498" lon="0.6279">
        <ele>152.02575683594</ele>
        <time>2015-02-19T13:35:01Z</time>
      </trkpt>
      <trkpt lat="44.24976" lon="0.62764">
        <ele>152.02575683594</ele>
        <time>2015-02-19T13:35:17Z</time>
      </trkpt>
      <trkpt lat="44.24973" lon="0.62755">
        <ele>152.02575683594</ele>
        <time>2015-02-19T13:35:23Z</time>
      </trkpt>
      <trkpt lat="44.24957" lon="0.62736">
        <ele>152.02575683594</ele>
        <time>2015-02-19T13:35:40Z</time>
      </trkpt>
      <trkpt lat="44.24945" lon="0.62727">
        <ele>149.1416015625</ele>
        <time>2015-02-19T13:35:55Z</time>
      </trkpt>
      <trkpt lat="44.24934" lon="0.62718">
        <ele>147.69970703125</ele>
        <time>2015-02-19T13:36:09Z</time>
      </trkpt>
      <trkpt lat="44.24932" lon="0.62711">
        <ele>148.18041992188</ele>
        <time>2015-02-19T13:36:20Z</time>
      </trkpt>
      <trkpt lat="44.24925" lon="0.62696">
        <ele>146.73840332031</ele>
        <time>2015-02-19T13:36:34Z</time>
      </trkpt>
      <trkpt lat="44.24926" lon="0.6269">
        <ele>144.33520507812</ele>
        <time>2015-02-19T13:36:42Z</time>
      </trkpt>
      <trkpt lat="44.24927" lon="0.62683">
        <ele>141.93176269531</ele>
        <time>2015-02-19T13:36:58Z</time>
      </trkpt>
      <trkpt lat="44.24928" lon="0.62672">
        <ele>144.81579589844</ele>
        <time>2015-02-19T13:37:20Z</time>
      </trkpt>
      <trkpt lat="44.2493" lon="0.62673">
        <ele>143.37365722656</ele>
        <time>2015-02-19T13:37:26Z</time>
      </trkpt>
      <trkpt lat="44.2494" lon="0.62675">
        <ele>141.93176269531</ele>
        <time>2015-02-19T13:37:41Z</time>
      </trkpt>
      <trkpt lat="44.24948" lon="0.62673">
        <ele>140.00915527344</ele>
        <time>2015-02-19T13:37:57Z</time>
      </trkpt>
      <trkpt lat="44.24965" lon="0.62672">
        <ele>139.0478515625</ele>
        <time>2015-02-19T13:38:15Z</time>
      </trkpt>
      <trkpt lat="44.24986" lon="0.62674">
        <ele>138.08654785156</ele>
        <time>2015-02-19T13:38:34Z</time>
      </trkpt>
      <trkpt lat="44.25011" lon="0.62674">
        <ele>134.2412109375</ele>
        <time>2015-02-19T13:38:53Z</time>
      </trkpt>
      <trkpt lat="44.25012" lon="0.62674">
        <ele>133.27990722656</ele>
        <time>2015-02-19T13:38:55Z</time>
      </trkpt>
      <trkpt lat="44.25027" lon="0.62676">
        <ele>127.03137207031</ele>
        <time>2015-02-19T13:39:10Z</time>
      </trkpt>
      <trkpt lat="44.25039" lon="0.6268">
        <ele>124.62805175781</ele>
        <time>2015-02-19T13:39:20Z</time>
      </trkpt>
      <trkpt lat="44.25044" lon="0.62689">
        <ele>123.18615722656</ele>
        <time>2015-02-19T13:39:28Z</time>
      </trkpt>
      <trkpt lat="44.25051" lon="0.627">
        <ele>122.22473144531</ele>
        <time>2015-02-19T13:39:40Z</time>
      </trkpt>
      <trkpt lat="44.25061" lon="0.62715">
        <ele>123.18615722656</ele>
        <time>2015-02-19T13:39:55Z</time>
      </trkpt>
      <trkpt lat="44.2507" lon="0.62735">
        <ele>121.744140625</ele>
        <time>2015-02-19T13:40:12Z</time>
      </trkpt>
      <trkpt lat="44.25071" lon="0.62736">
        <ele>122.22473144531</ele>
        <time>2015-02-19T13:40:13Z</time>
      </trkpt>
      <trkpt lat="44.25077" lon="0.62752">
        <ele>121.744140625</ele>
        <time>2015-02-19T13:40:29Z</time>
      </trkpt>
      <trkpt lat="44.25074" lon="0.6277">
        <ele>119.82141113281</ele>
        <time>2015-02-19T13:40:47Z</time>
      </trkpt>
      <trkpt lat="44.25062" lon="0.62789">
        <ele>124.62805175781</ele>
        <time>2015-02-19T13:41:07Z</time>
      </trkpt>
      <trkpt lat="44.25058" lon="0.62794">
        <ele>126.55065917969</ele>
        <time>2015-02-19T13:41:13Z</time>
      </trkpt>
      <trkpt lat="44.25054" lon="0.62811">
        <ele>130.87670898438</ele>
        <time>2015-02-19T13:41:24Z</time>
      </trkpt>
      <trkpt lat="44.25044" lon="0.62826">
        <ele>136.64465332031</ele>
        <time>2015-02-19T13:41:38Z</time>
      </trkpt>
      <trkpt lat="44.25033" lon="0.62841">
        <ele>140.97045898438</ele>
        <time>2015-02-19T13:41:55Z</time>
      </trkpt>
      <trkpt lat="44.25022" lon="0.62863">
        <ele>146.2578125</ele>
        <time>2015-02-19T13:42:15Z</time>
      </trkpt>
      <trkpt lat="44.25016" lon="0.62874">
        <ele>148.66101074219</ele>
        <time>2015-02-19T13:42:29Z</time>
      </trkpt>
      <trkpt lat="44.25013" lon="0.62899">
        <ele>151.06420898438</ele>
        <time>2015-02-19T13:42:47Z</time>
      </trkpt>
      <trkpt lat="44.25013" lon="0.62898">
        <ele>151.06420898438</ele>
        <time>2015-02-19T13:42:48Z</time>
      </trkpt>
      <trkpt lat="44.25012" lon="0.62916">
        <ele>152.50634765625</ele>
        <time>2015-02-19T13:42:58Z</time>
      </trkpt>
      <trkpt lat="44.25015" lon="0.62926">
        <ele>149.1416015625</ele>
        <time>2015-02-19T13:43:04Z</time>
      </trkpt>
      <trkpt lat="44.25019" lon="0.62934">
        <ele>148.18041992188</ele>
        <time>2015-02-19T13:43:09Z</time>
      </trkpt>
      <trkpt lat="44.25017" lon="0.62953">
        <ele>146.73840332031</ele>
        <time>2015-02-19T13:43:21Z</time>
      </trkpt>
      <trkpt lat="44.25018" lon="0.6297">
        <ele>142.89306640625</ele>
        <time>2015-02-19T13:43:37Z</time>
      </trkpt>
      <trkpt lat="44.2502" lon="0.62987">
        <ele>142.41247558594</ele>
        <time>2015-02-19T13:43:53Z</time>
      </trkpt>
      <trkpt lat="44.25025" lon="0.63003">
        <ele>140.97045898438</ele>
        <time>2015-02-19T13:44:08Z</time>
      </trkpt>
      <trkpt lat="44.25029" lon="0.63006">
        <ele>139.0478515625</ele>
        <time>2015-02-19T13:44:15Z</time>
      </trkpt>
      <trkpt lat="44.25041" lon="0.63011">
        <ele>138.08654785156</ele>
        <time>2015-02-19T13:44:25Z</time>
      </trkpt>
      <trkpt lat="44.25052" lon="0.63009">
        <ele>139.52844238281</ele>
        <time>2015-02-19T13:44:40Z</time>
      </trkpt>
      <trkpt lat="44.25056" lon="0.63009">
        <ele>140.48986816406</ele>
        <time>2015-02-19T13:44:42Z</time>
      </trkpt>
      <trkpt lat="44.25061" lon="0.6301">
        <ele>140.97045898438</ele>
        <time>2015-02-19T13:44:45Z</time>
      </trkpt>
      <trkpt lat="44.25063" lon="0.63012">
        <ele>139.0478515625</ele>
        <time>2015-02-19T13:44:47Z</time>
      </trkpt>
      <trkpt lat="44.25074" lon="0.63014">
        <ele>139.0478515625</ele>
        <time>2015-02-19T13:45:00Z</time>
      </trkpt>
      <trkpt lat="44.2509" lon="0.63012">
        <ele>140.97045898438</ele>
        <time>2015-02-19T13:45:17Z</time>
      </trkpt>
      <trkpt lat="44.25097" lon="0.6301">
        <ele>143.37365722656</ele>
        <time>2015-02-19T13:45:25Z</time>
      </trkpt>
      <trkpt lat="44.25115" lon="0.63014">
        <ele>145.77709960938</ele>
        <time>2015-02-19T13:45:40Z</time>
      </trkpt>
      <trkpt lat="44.25128" lon="0.63022">
        <ele>143.85437011719</ele>
        <time>2015-02-19T13:45:53Z</time>
      </trkpt>
      <trkpt lat="44.25137" lon="0.63035">
        <ele>142.89306640625</ele>
        <time>2015-02-19T13:46:04Z</time>
      </trkpt>
      <trkpt lat="44.25139" lon="0.63039">
        <ele>141.93176269531</ele>
        <time>2015-02-19T13:46:07Z</time>
      </trkpt>
      <trkpt lat="44.2514" lon="0.63041">
        <ele>141.45104980469</ele>
        <time>2015-02-19T13:46:09Z</time>
      </trkpt>
      <trkpt lat="44.25141" lon="0.63057">
        <ele>138.08654785156</ele>
        <time>2015-02-19T13:46:22Z</time>
      </trkpt>
      <trkpt lat="44.2514" lon="0.63085">
        <ele>137.12524414062</ele>
        <time>2015-02-19T13:46:42Z</time>
      </trkpt>
      <trkpt lat="44.2514" lon="0.63111">
        <ele>139.52844238281</ele>
        <time>2015-02-19T13:46:59Z</time>
      </trkpt>
      <trkpt lat="44.25141" lon="0.6313">
        <ele>140.48986816406</ele>
        <time>2015-02-19T13:47:12Z</time>
      </trkpt>
      <trkpt lat="44.25137" lon="0.63154">
        <ele>140.97045898438</ele>
        <time>2015-02-19T13:47:28Z</time>
      </trkpt>
      <trkpt lat="44.25132" lon="0.63174">
        <ele>144.33520507812</ele>
        <time>2015-02-19T13:47:44Z</time>
      </trkpt>
      <trkpt lat="44.2514" lon="0.63194">
        <ele>137.60583496094</ele>
        <time>2015-02-19T13:48:05Z</time>
      </trkpt>
      <trkpt lat="44.25143" lon="0.63206">
        <ele>134.72192382812</ele>
        <time>2015-02-19T13:48:17Z</time>
      </trkpt>
      <trkpt lat="44.25146" lon="0.63224">
        <ele>131.35729980469</ele>
        <time>2015-02-19T13:48:33Z</time>
      </trkpt>
      <trkpt lat="44.2515" lon="0.63235">
        <ele>128.47338867188</ele>
        <time>2015-02-19T13:48:50Z</time>
      </trkpt>
      <trkpt lat="44.25163" lon="0.6324">
        <ele>121.26354980469</ele>
        <time>2015-02-19T13:49:09Z</time>
      </trkpt>
      <trkpt lat="44.25177" lon="0.63241">
        <ele>119.3408203125</ele>
        <time>2015-02-19T13:49:25Z</time>
      </trkpt>
      <trkpt lat="44.25197" lon="0.63235">
        <ele>115.49560546875</ele>
        <time>2015-02-19T13:49:46Z</time>
      </trkpt>
      <trkpt lat="44.252" lon="0.63234">
        <ele>115.49560546875</ele>
        <time>2015-02-19T13:49:49Z</time>
      </trkpt>
      <trkpt lat="44.25218" lon="0.63224">
        <ele>114.05358886719</ele>
        <time>2015-02-19T13:50:07Z</time>
      </trkpt>
      <trkpt lat="44.25237" lon="0.632">
        <ele>110.68884277344</ele>
        <time>2015-02-19T13:50:32Z</time>
      </trkpt>
      <trkpt lat="44.25253" lon="0.63176">
        <ele>108.76623535156</ele>
        <time>2015-02-19T13:50:59Z</time>
      </trkpt>
      <trkpt lat="44.25266" lon="0.63158">
        <ele>106.84362792969</ele>
        <time>2015-02-19T13:51:17Z</time>
      </trkpt>
      <trkpt lat="44.25282" lon="0.63135">
        <ele>104.4404296875</ele>
        <time>2015-02-19T13:51:42Z</time>
      </trkpt>
      <trkpt lat="44.25293" lon="0.63119">
        <ele>103.47900390625</ele>
        <time>2015-02-19T13:51:58Z</time>
      </trkpt>
      <trkpt lat="44.25299" lon="0.6311">
        <ele>103.47900390625</ele>
        <time>2015-02-19T13:52:08Z</time>
      </trkpt>
      <trkpt lat="44.25309" lon="0.63096">
        <ele>101.07568359375</ele>
        <time>2015-02-19T13:52:24Z</time>
      </trkpt>
      <trkpt lat="44.25321" lon="0.63079">
        <ele>97.711181640625</ele>
        <time>2015-02-19T13:52:44Z</time>
      </trkpt>
      <trkpt lat="44.25331" lon="0.63066">
        <ele>96.749877929688</ele>
        <time>2015-02-19T13:53:01Z</time>
      </trkpt>
      <trkpt lat="44.25337" lon="0.63055">
        <ele>94.346557617188</ele>
        <time>2015-02-19T13:53:14Z</time>
      </trkpt>
      <trkpt lat="44.2534" lon="0.63051">
        <ele>93.865844726562</ele>
        <time>2015-02-19T13:53:18Z</time>
      </trkpt>
      <trkpt lat="44.25348" lon="0.63033">
        <ele>91.462524414062</ele>
        <time>2015-02-19T13:53:36Z</time>
      </trkpt>
      <trkpt lat="44.25351" lon="0.63027">
        <ele>90.98193359375</ele>
        <time>2015-02-19T13:53:44Z</time>
      </trkpt>
      <trkpt lat="44.25351" lon="0.63025">
        <ele>90.98193359375</ele>
        <time>2015-02-19T13:53:46Z</time>
      </trkpt>
      <trkpt lat="44.25345" lon="0.62998">
        <ele>89.539916992188</ele>
        <time>2015-02-19T13:54:05Z</time>
      </trkpt>
      <trkpt lat="44.25338" lon="0.62967">
        <ele>90.501342773438</ele>
        <time>2015-02-19T13:54:25Z</time>
      </trkpt>
      <trkpt lat="44.25331" lon="0.6295">
        <ele>90.98193359375</ele>
        <time>2015-02-19T13:54:40Z</time>
      </trkpt>
      <trkpt lat="44.25327" lon="0.62931">
        <ele>91.462524414062</ele>
        <time>2015-02-19T13:54:54Z</time>
      </trkpt>
      <trkpt lat="44.25324" lon="0.6292">
        <ele>90.98193359375</ele>
        <time>2015-02-19T13:55:01Z</time>
      </trkpt>
      <trkpt lat="44.25321" lon="0.62907">
        <ele>90.98193359375</ele>
        <time>2015-02-19T13:55:11Z</time>
      </trkpt>
      <trkpt lat="44.25312" lon="0.62885">
        <ele>89.059326171875</ele>
        <time>2015-02-19T13:55:27Z</time>
      </trkpt>
      <trkpt lat="44.25304" lon="0.62863">
        <ele>90.98193359375</ele>
        <time>2015-02-19T13:55:45Z</time>
      </trkpt>
      <trkpt lat="44.25294" lon="0.62829">
        <ele>91.943237304688</ele>
        <time>2015-02-19T13:56:10Z</time>
      </trkpt>
      <trkpt lat="44.25287" lon="0.62807">
        <ele>90.98193359375</ele>
        <time>2015-02-19T13:56:25Z</time>
      </trkpt>
      <trkpt lat="44.25284" lon="0.62791">
        <ele>89.059326171875</ele>
        <time>2015-02-19T13:56:37Z</time>
      </trkpt>
      <trkpt lat="44.25279" lon="0.62772">
        <ele>88.578735351562</ele>
        <time>2015-02-19T13:56:50Z</time>
      </trkpt>
      <trkpt lat="44.25271" lon="0.62749">
        <ele>89.059326171875</ele>
        <time>2015-02-19T13:57:06Z</time>
      </trkpt>
      <trkpt lat="44.25269" lon="0.62745">
        <ele>89.539916992188</ele>
        <time>2015-02-19T13:57:09Z</time>
      </trkpt>
      <trkpt lat="44.25266" lon="0.62729">
        <ele>89.059326171875</ele>
        <time>2015-02-19T13:57:20Z</time>
      </trkpt>
      <trkpt lat="44.2526" lon="0.62706">
        <ele>90.501342773438</ele>
        <time>2015-02-19T13:57:36Z</time>
      </trkpt>
      <trkpt lat="44.25256" lon="0.62676">
        <ele>92.423950195312</ele>
        <time>2015-02-19T13:57:56Z</time>
      </trkpt>
      <trkpt lat="44.25263" lon="0.62644">
        <ele>91.462524414062</ele>
        <time>2015-02-19T13:58:20Z</time>
      </trkpt>
      <trkpt lat="44.25274" lon="0.62611">
        <ele>89.059326171875</ele>
        <time>2015-02-19T13:58:46Z</time>
      </trkpt>
      <trkpt lat="44.25284" lon="0.62578">
        <ele>87.136596679688</ele>
        <time>2015-02-19T13:59:11Z</time>
      </trkpt>
      <trkpt lat="44.25295" lon="0.62551">
        <ele>86.656005859375</ele>
        <time>2015-02-19T13:59:30Z</time>
      </trkpt>
      <trkpt lat="44.25296" lon="0.62546">
        <ele>85.694580078125</ele>
        <time>2015-02-19T13:59:34Z</time>
      </trkpt>
      <trkpt lat="44.25298" lon="0.62533">
        <ele>82.810791015625</ele>
        <time>2015-02-19T13:59:44Z</time>
      </trkpt>
      <trkpt lat="44.25303" lon="0.62525">
        <ele>82.330078125</ele>
        <time>2015-02-19T13:59:50Z</time>
      </trkpt>
      <trkpt lat="44.25306" lon="0.62516">
        <ele>81.368774414062</ele>
        <time>2015-02-19T13:59:58Z</time>
      </trkpt>
      <trkpt lat="44.25307" lon="0.62511">
        <ele>80.88818359375</ele>
        <time>2015-02-19T14:00:01Z</time>
      </trkpt>
      <trkpt lat="44.25323" lon="0.62483">
        <ele>79.926635742188</ele>
        <time>2015-02-19T14:00:23Z</time>
      </trkpt>
      <trkpt lat="44.25329" lon="0.62467">
        <ele>80.407470703125</ele>
        <time>2015-02-19T14:00:35Z</time>
      </trkpt>
      <trkpt lat="44.25333" lon="0.62461">
        <ele>80.407470703125</ele>
        <time>2015-02-19T14:00:40Z</time>
      </trkpt>
      <trkpt lat="44.25335" lon="0.62455">
        <ele>79.446044921875</ele>
        <time>2015-02-19T14:00:44Z</time>
      </trkpt>
      <trkpt lat="44.2534" lon="0.62446">
        <ele>78.965454101562</ele>
        <time>2015-02-19T14:00:51Z</time>
      </trkpt>
      <trkpt lat="44.25341" lon="0.62429">
        <ele>78.004028320312</ele>
        <time>2015-02-19T14:01:04Z</time>
      </trkpt>
      <trkpt lat="44.2534" lon="0.62424">
        <ele>78.484741210938</ele>
        <time>2015-02-19T14:01:07Z</time>
      </trkpt>
      <trkpt lat="44.25334" lon="0.62408">
        <ele>78.484741210938</ele>
        <time>2015-02-19T14:01:19Z</time>
      </trkpt>
      <trkpt lat="44.25323" lon="0.62383">
        <ele>79.926635742188</ele>
        <time>2015-02-19T14:01:34Z</time>
      </trkpt>
      <trkpt lat="44.25317" lon="0.62366">
        <ele>79.446044921875</ele>
        <time>2015-02-19T14:01:46Z</time>
      </trkpt>
      <trkpt lat="44.25313" lon="0.6236">
        <ele>78.965454101562</ele>
        <time>2015-02-19T14:01:50Z</time>
      </trkpt>
      <trkpt lat="44.25301" lon="0.62341">
        <ele>80.88818359375</ele>
        <time>2015-02-19T14:02:05Z</time>
      </trkpt>
      <trkpt lat="44.25298" lon="0.62335">
        <ele>80.407470703125</ele>
        <time>2015-02-19T14:02:10Z</time>
      </trkpt>
      <trkpt lat="44.25297" lon="0.62331">
        <ele>79.446044921875</ele>
        <time>2015-02-19T14:02:12Z</time>
      </trkpt>
      <trkpt lat="44.25292" lon="0.62314">
        <ele>81.849365234375</ele>
        <time>2015-02-19T14:02:26Z</time>
      </trkpt>
      <trkpt lat="44.25288" lon="0.62304">
        <ele>82.330078125</ele>
        <time>2015-02-19T14:02:32Z</time>
      </trkpt>
      <trkpt lat="44.25277" lon="0.62281">
        <ele>81.368774414062</ele>
        <time>2015-02-19T14:02:49Z</time>
      </trkpt>
      <trkpt lat="44.25274" lon="0.62278">
        <ele>81.368774414062</ele>
        <time>2015-02-19T14:02:51Z</time>
      </trkpt>
      <trkpt lat="44.2527" lon="0.62261">
        <ele>83.77197265625</ele>
        <time>2015-02-19T14:03:03Z</time>
      </trkpt>
      <trkpt lat="44.2526" lon="0.6224">
        <ele>82.330078125</ele>
        <time>2015-02-19T14:03:19Z</time>
      </trkpt>
      <trkpt lat="44.25249" lon="0.62221">
        <ele>81.849365234375</ele>
        <time>2015-02-19T14:03:33Z</time>
      </trkpt>
      <trkpt lat="44.25241" lon="0.622">
        <ele>82.330078125</ele>
        <time>2015-02-19T14:03:50Z</time>
      </trkpt>
      <trkpt lat="44.25236" lon="0.62175">
        <ele>81.849365234375</ele>
        <time>2015-02-19T14:04:05Z</time>
      </trkpt>
      <trkpt lat="44.2523" lon="0.62152">
        <ele>83.77197265625</ele>
        <time>2015-02-19T14:04:18Z</time>
      </trkpt>
      <trkpt lat="44.25226" lon="0.62127">
        <ele>81.849365234375</ele>
        <time>2015-02-19T14:04:36Z</time>
      </trkpt>
      <trkpt lat="44.2523" lon="0.62105">
        <ele>80.407470703125</ele>
        <time>2015-02-19T14:04:54Z</time>
      </trkpt>
      <trkpt lat="44.25231" lon="0.62104">
        <ele>80.88818359375</ele>
        <time>2015-02-19T14:04:56Z</time>
      </trkpt>
      <trkpt lat="44.25249" lon="0.62092">
        <ele>79.446044921875</ele>
        <time>2015-02-19T14:05:14Z</time>
      </trkpt>
      <trkpt lat="44.25254" lon="0.62083">
        <ele>79.926635742188</ele>
        <time>2015-02-19T14:05:23Z</time>
      </trkpt>
      <trkpt lat="44.25252" lon="0.62066">
        <ele>78.965454101562</ele>
        <time>2015-02-19T14:05:40Z</time>
      </trkpt>
      <trkpt lat="44.25259" lon="0.62055">
        <ele>79.926635742188</ele>
        <time>2015-02-19T14:05:49Z</time>
      </trkpt>
      <trkpt lat="44.25268" lon="0.62029">
        <ele>79.446044921875</ele>
        <time>2015-02-19T14:06:09Z</time>
      </trkpt>
      <trkpt lat="44.25282" lon="0.62004">
        <ele>79.446044921875</ele>
        <time>2015-02-19T14:06:29Z</time>
      </trkpt>
      <trkpt lat="44.25298" lon="0.61975">
        <ele>79.926635742188</ele>
        <time>2015-02-19T14:06:53Z</time>
      </trkpt>
      <trkpt lat="44.2531" lon="0.61952">
        <ele>80.88818359375</ele>
        <time>2015-02-19T14:07:12Z</time>
      </trkpt>
      <trkpt lat="44.25314" lon="0.61947">
        <ele>83.291381835938</ele>
        <time>2015-02-19T14:07:28Z</time>
      </trkpt>
      <trkpt lat="44.25316" lon="0.61946">
        <ele>85.213989257812</ele>
        <time>2015-02-19T14:07:54Z</time>
      </trkpt>
      <trkpt lat="44.25315" lon="0.61948">
        <ele>83.77197265625</ele>
        <time>2015-02-19T14:08:20Z</time>
      </trkpt>
      <trkpt lat="44.25318" lon="0.6194">
        <ele>84.252685546875</ele>
        <time>2015-02-19T14:08:59Z</time>
      </trkpt>
      <trkpt lat="44.25319" lon="0.61938">
        <ele>83.77197265625</ele>
        <time>2015-02-19T14:09:38Z</time>
      </trkpt>
      <trkpt lat="44.25331" lon="0.61939">
        <ele>84.252685546875</ele>
        <time>2015-02-19T14:09:59Z</time>
      </trkpt>
      <trkpt lat="44.25337" lon="0.61942">
        <ele>85.694580078125</ele>
        <time>2015-02-19T14:10:08Z</time>
      </trkpt>
      <trkpt lat="44.25352" lon="0.61948">
        <ele>87.136596679688</ele>
        <time>2015-02-19T14:10:28Z</time>
      </trkpt>
      <trkpt lat="44.25372" lon="0.61951">
        <ele>89.059326171875</ele>
        <time>2015-02-19T14:10:55Z</time>
      </trkpt>
      <trkpt lat="44.25387" lon="0.61955">
        <ele>91.462524414062</ele>
        <time>2015-02-19T14:11:16Z</time>
      </trkpt>
      <trkpt lat="44.25395" lon="0.61954">
        <ele>92.904541015625</ele>
        <time>2015-02-19T14:11:35Z</time>
      </trkpt>
      <trkpt lat="44.25407" lon="0.61959">
        <ele>93.865844726562</ele>
        <time>2015-02-19T14:11:52Z</time>
      </trkpt>
      <trkpt lat="44.25413" lon="0.61971">
        <ele>94.8271484375</ele>
        <time>2015-02-19T14:12:11Z</time>
      </trkpt>
      <trkpt lat="44.25421" lon="0.61987">
        <ele>95.307739257812</ele>
        <time>2015-02-19T14:12:28Z</time>
      </trkpt>
      <trkpt lat="44.25429" lon="0.62004">
        <ele>97.711181640625</ele>
        <time>2015-02-19T14:12:47Z</time>
      </trkpt>
      <trkpt lat="44.25434" lon="0.62014">
        <ele>101.07568359375</ele>
        <time>2015-02-19T14:13:07Z</time>
      </trkpt>
      <trkpt lat="44.25437" lon="0.62019">
        <ele>101.55639648438</ele>
        <time>2015-02-19T14:13:26Z</time>
      </trkpt>
      <trkpt lat="44.25442" lon="0.62025">
        <ele>102.037109375</ele>
        <time>2015-02-19T14:13:37Z</time>
      </trkpt>
      <trkpt lat="44.25445" lon="0.62037">
        <ele>104.4404296875</ele>
        <time>2015-02-19T14:13:46Z</time>
      </trkpt>
      <trkpt lat="44.25451" lon="0.62054">
        <ele>108.76623535156</ele>
        <time>2015-02-19T14:14:05Z</time>
      </trkpt>
      <trkpt lat="44.25454" lon="0.62058">
        <ele>109.24694824219</ele>
        <time>2015-02-19T14:14:21Z</time>
      </trkpt>
      <trkpt lat="44.25462" lon="0.62072">
        <ele>114.05358886719</ele>
        <time>2015-02-19T14:14:40Z</time>
      </trkpt>
      <trkpt lat="44.25468" lon="0.6209">
        <ele>115.97619628906</ele>
        <time>2015-02-19T14:14:57Z</time>
      </trkpt>
      <trkpt lat="44.25473" lon="0.62098">
        <ele>118.37939453125</ele>
        <time>2015-02-19T14:15:10Z</time>
      </trkpt>
      <trkpt lat="44.25477" lon="0.62102">
        <ele>119.3408203125</ele>
        <time>2015-02-19T14:15:26Z</time>
      </trkpt>
      <trkpt lat="44.25486" lon="0.62115">
        <ele>118.37939453125</ele>
        <time>2015-02-19T14:15:43Z</time>
      </trkpt>
      <trkpt lat="44.25497" lon="0.62122">
        <ele>118.37939453125</ele>
        <time>2015-02-19T14:15:57Z</time>
      </trkpt>
      <trkpt lat="44.25506" lon="0.62134">
        <ele>122.70544433594</ele>
        <time>2015-02-19T14:16:13Z</time>
      </trkpt>
      <trkpt lat="44.25515" lon="0.62137">
        <ele>123.18615722656</ele>
        <time>2015-02-19T14:16:32Z</time>
      </trkpt>
      <trkpt lat="44.25528" lon="0.62149">
        <ele>125.58935546875</ele>
        <time>2015-02-19T14:16:51Z</time>
      </trkpt>
      <trkpt lat="44.25534" lon="0.62156">
        <ele>126.55065917969</ele>
        <time>2015-02-19T14:17:01Z</time>
      </trkpt>
      <trkpt lat="44.25545" lon="0.62173">
        <ele>129.91528320312</ele>
        <time>2015-02-19T14:17:20Z</time>
      </trkpt>
      <trkpt lat="44.25544" lon="0.62183">
        <ele>134.2412109375</ele>
        <time>2015-02-19T14:17:39Z</time>
      </trkpt>
      <trkpt lat="44.25541" lon="0.62208">
        <ele>138.56726074219</ele>
        <time>2015-02-19T14:18:04Z</time>
      </trkpt>
      <trkpt lat="44.25544" lon="0.62221">
        <ele>139.0478515625</ele>
        <time>2015-02-19T14:18:23Z</time>
      </trkpt>
      <trkpt lat="44.25552" lon="0.62199">
        <ele>143.37365722656</ele>
        <time>2015-02-19T14:18:45Z</time>
      </trkpt>
      <trkpt lat="44.25559" lon="0.62183">
        <ele>143.37365722656</ele>
        <time>2015-02-19T14:19:08Z</time>
      </trkpt>
      <trkpt lat="44.25561" lon="0.62172">
        <ele>142.89306640625</ele>
        <time>2015-02-19T14:19:25Z</time>
      </trkpt>
      <trkpt lat="44.25563" lon="0.62157">
        <ele>142.41247558594</ele>
        <time>2015-02-19T14:19:41Z</time>
      </trkpt>
      <trkpt lat="44.25563" lon="0.62138">
        <ele>142.89306640625</ele>
        <time>2015-02-19T14:19:59Z</time>
      </trkpt>
      <trkpt lat="44.25571" lon="0.62138">
        <ele>141.45104980469</ele>
        <time>2015-02-19T14:20:13Z</time>
      </trkpt>
      <trkpt lat="44.25586" lon="0.62139">
        <ele>141.93176269531</ele>
        <time>2015-02-19T14:20:32Z</time>
      </trkpt>
      <trkpt lat="44.25592" lon="0.6214">
        <ele>141.93176269531</ele>
        <time>2015-02-19T14:20:40Z</time>
      </trkpt>
      <trkpt lat="44.25611" lon="0.62142">
        <ele>142.41247558594</ele>
        <time>2015-02-19T14:21:04Z</time>
      </trkpt>
      <trkpt lat="44.25626" lon="0.62144">
        <ele>143.85437011719</ele>
        <time>2015-02-19T14:21:25Z</time>
      </trkpt>
      <trkpt lat="44.2564" lon="0.62145">
        <ele>144.81579589844</ele>
        <time>2015-02-19T14:21:47Z</time>
      </trkpt>
      <trkpt lat="44.25656" lon="0.62147">
        <ele>148.18041992188</ele>
        <time>2015-02-19T14:22:11Z</time>
      </trkpt>
      <trkpt lat="44.25668" lon="0.62147">
        <ele>150.10302734375</ele>
        <time>2015-02-19T14:22:32Z</time>
      </trkpt>
      <trkpt lat="44.25683" lon="0.6215">
        <ele>152.98693847656</ele>
        <time>2015-02-19T14:22:56Z</time>
      </trkpt>
      <trkpt lat="44.25693" lon="0.6215">
        <ele>155.87097167969</ele>
        <time>2015-02-19T14:23:17Z</time>
      </trkpt>
      <trkpt lat="44.25705" lon="0.62153">
        <ele>158.27416992188</ele>
        <time>2015-02-19T14:23:38Z</time>
      </trkpt>
      <trkpt lat="44.25716" lon="0.62151">
        <ele>160.19689941406</ele>
        <time>2015-02-19T14:23:58Z</time>
      </trkpt>
      <trkpt lat="44.2573" lon="0.62151">
        <ele>162.60009765625</ele>
        <time>2015-02-19T14:24:21Z</time>
      </trkpt>
      <trkpt lat="44.25744" lon="0.62156">
        <ele>164.52270507812</ele>
        <time>2015-02-19T14:24:41Z</time>
      </trkpt>
      <trkpt lat="44.25745" lon="0.62156">
        <ele>164.04211425781</ele>
        <time>2015-02-19T14:25:08Z</time>
      </trkpt>
      <trkpt lat="44.25747" lon="0.62142">
        <ele>163.5615234375</ele>
        <time>2015-02-19T14:26:19Z</time>
      </trkpt>
      <trkpt lat="44.25748" lon="0.62126">
        <ele>163.08081054688</ele>
        <time>2015-02-19T14:26:36Z</time>
      </trkpt>
      <trkpt lat="44.25749" lon="0.62125">
        <ele>163.08081054688</ele>
        <time>2015-02-19T14:26:37Z</time>
      </trkpt>
      <trkpt lat="44.25746" lon="0.62099">
        <ele>161.158203125</ele>
        <time>2015-02-19T14:26:55Z</time>
      </trkpt>
      <trkpt lat="44.25742" lon="0.62076">
        <ele>159.71618652344</ele>
        <time>2015-02-19T14:27:13Z</time>
      </trkpt>
      <trkpt lat="44.25736" lon="0.62051">
        <ele>158.27416992188</ele>
        <time>2015-02-19T14:27:28Z</time>
      </trkpt>
      <trkpt lat="44.25725" lon="0.62021">
        <ele>155.87097167969</ele>
        <time>2015-02-19T14:27:47Z</time>
      </trkpt>
      <trkpt lat="44.25718" lon="0.61998">
        <ele>155.39025878906</ele>
        <time>2015-02-19T14:28:04Z</time>
      </trkpt>
      <trkpt lat="44.25711" lon="0.61978">
        <ele>155.87097167969</ele>
        <time>2015-02-19T14:28:20Z</time>
      </trkpt>
      <trkpt lat="44.25703" lon="0.61951">
        <ele>156.83215332031</ele>
        <time>2015-02-19T14:28:39Z</time>
      </trkpt>
      <trkpt lat="44.25695" lon="0.61929">
        <ele>156.83215332031</ele>
        <time>2015-02-19T14:28:54Z</time>
      </trkpt>
      <trkpt lat="44.25688" lon="0.61908">
        <ele>155.87097167969</ele>
        <time>2015-02-19T14:29:11Z</time>
      </trkpt>
      <trkpt lat="44.25679" lon="0.61884">
        <ele>154.42895507812</ele>
        <time>2015-02-19T14:29:28Z</time>
      </trkpt>
      <trkpt lat="44.25668" lon="0.6186">
        <ele>151.06420898438</ele>
        <time>2015-02-19T14:29:45Z</time>
      </trkpt>
      <trkpt lat="44.25661" lon="0.6184">
        <ele>150.10302734375</ele>
        <time>2015-02-19T14:29:59Z</time>
      </trkpt>
      <trkpt lat="44.25653" lon="0.61817">
        <ele>149.62231445312</ele>
        <time>2015-02-19T14:30:15Z</time>
      </trkpt>
      <trkpt lat="44.25644" lon="0.61792">
        <ele>148.66101074219</ele>
        <time>2015-02-19T14:30:33Z</time>
      </trkpt>
      <trkpt lat="44.25638" lon="0.61772">
        <ele>148.66101074219</ele>
        <time>2015-02-19T14:30:47Z</time>
      </trkpt>
      <trkpt lat="44.2563" lon="0.6175">
        <ele>148.18041992188</ele>
        <time>2015-02-19T14:31:03Z</time>
      </trkpt>
      <trkpt lat="44.25621" lon="0.61722">
        <ele>147.21899414062</ele>
        <time>2015-02-19T14:31:21Z</time>
      </trkpt>
      <trkpt lat="44.25611" lon="0.61697">
        <ele>147.21899414062</ele>
        <time>2015-02-19T14:31:38Z</time>
      </trkpt>
      <trkpt lat="44.25602" lon="0.61673">
        <ele>146.2578125</ele>
        <time>2015-02-19T14:31:55Z</time>
      </trkpt>
      <trkpt lat="44.25596" lon="0.61652">
        <ele>145.77709960938</ele>
        <time>2015-02-19T14:32:08Z</time>
      </trkpt>
      <trkpt lat="44.25588" lon="0.61629">
        <ele>143.85437011719</ele>
        <time>2015-02-19T14:32:24Z</time>
      </trkpt>
      <trkpt lat="44.2558" lon="0.61608">
        <ele>144.81579589844</ele>
        <time>2015-02-19T14:32:39Z</time>
      </trkpt>
      <trkpt lat="44.25572" lon="0.61586">
        <ele>144.81579589844</ele>
        <time>2015-02-19T14:32:55Z</time>
      </trkpt>
      <trkpt lat="44.25564" lon="0.61562">
        <ele>146.2578125</ele>
        <time>2015-02-19T14:33:12Z</time>
      </trkpt>
      <trkpt lat="44.2556" lon="0.61547">
        <ele>147.69970703125</ele>
        <time>2015-02-19T14:33:24Z</time>
      </trkpt>
      <trkpt lat="44.25548" lon="0.6152">
        <ele>146.73840332031</ele>
        <time>2015-02-19T14:33:43Z</time>
      </trkpt>
      <trkpt lat="44.2554" lon="0.61496">
        <ele>148.18041992188</ele>
        <time>2015-02-19T14:33:59Z</time>
      </trkpt>
      <trkpt lat="44.25527" lon="0.61466">
        <ele>146.2578125</ele>
        <time>2015-02-19T14:34:21Z</time>
      </trkpt>
      <trkpt lat="44.25519" lon="0.61439">
        <ele>146.73840332031</ele>
        <time>2015-02-19T14:34:40Z</time>
      </trkpt>
      <trkpt lat="44.25515" lon="0.61422">
        <ele>147.21899414062</ele>
        <time>2015-02-19T14:34:51Z</time>
      </trkpt>
      <trkpt lat="44.25511" lon="0.614">
        <ele>148.18041992188</ele>
        <time>2015-02-19T14:35:06Z</time>
      </trkpt>
      <trkpt lat="44.25509" lon="0.6139">
        <ele>148.18041992188</ele>
        <time>2015-02-19T14:35:11Z</time>
      </trkpt>
      <trkpt lat="44.25509" lon="0.61387">
        <ele>147.69970703125</ele>
        <time>2015-02-19T14:35:13Z</time>
      </trkpt>
      <trkpt lat="44.25509" lon="0.61364">
        <ele>147.69970703125</ele>
        <time>2015-02-19T14:35:27Z</time>
      </trkpt>
      <trkpt lat="44.25508" lon="0.61349">
        <ele>146.73840332031</ele>
        <time>2015-02-19T14:35:35Z</time>
      </trkpt>
      <trkpt lat="44.25507" lon="0.6134">
        <ele>146.73840332031</ele>
        <time>2015-02-19T14:35:40Z</time>
      </trkpt>
      <trkpt lat="44.25507" lon="0.61337">
        <ele>146.2578125</ele>
        <time>2015-02-19T14:35:42Z</time>
      </trkpt>
      <trkpt lat="44.25508" lon="0.61315">
        <ele>144.81579589844</ele>
        <time>2015-02-19T14:35:58Z</time>
      </trkpt>
      <trkpt lat="44.2551" lon="0.61304">
        <ele>145.77709960938</ele>
        <time>2015-02-19T14:36:06Z</time>
      </trkpt>
      <trkpt lat="44.25512" lon="0.61278">
        <ele>142.41247558594</ele>
        <time>2015-02-19T14:36:23Z</time>
      </trkpt>
      <trkpt lat="44.25512" lon="0.61262">
        <ele>141.93176269531</ele>
        <time>2015-02-19T14:36:33Z</time>
      </trkpt>
      <trkpt lat="44.25502" lon="0.61229">
        <ele>144.33520507812</ele>
        <time>2015-02-19T14:36:53Z</time>
      </trkpt>
      <trkpt lat="44.25496" lon="0.61202">
        <ele>145.29638671875</ele>
        <time>2015-02-19T14:37:11Z</time>
      </trkpt>
      <trkpt lat="44.25494" lon="0.61192">
        <ele>144.81579589844</ele>
        <time>2015-02-19T14:37:18Z</time>
      </trkpt>
      <trkpt lat="44.25487" lon="0.61163">
        <ele>145.29638671875</ele>
        <time>2015-02-19T14:37:36Z</time>
      </trkpt>
      <trkpt lat="44.25486" lon="0.61157">
        <ele>146.2578125</ele>
        <time>2015-02-19T14:37:39Z</time>
      </trkpt>
      <trkpt lat="44.25483" lon="0.61135">
        <ele>146.73840332031</ele>
        <time>2015-02-19T14:37:52Z</time>
      </trkpt>
      <trkpt lat="44.25481" lon="0.61115">
        <ele>147.69970703125</ele>
        <time>2015-02-19T14:38:09Z</time>
      </trkpt>
      <trkpt lat="44.25479" lon="0.61088">
        <ele>146.73840332031</ele>
        <time>2015-02-19T14:38:27Z</time>
      </trkpt>
      <trkpt lat="44.25473" lon="0.61064">
        <ele>147.69970703125</ele>
        <time>2015-02-19T14:38:42Z</time>
      </trkpt>
      <trkpt lat="44.25467" lon="0.61039">
        <ele>148.18041992188</ele>
        <time>2015-02-19T14:38:59Z</time>
      </trkpt>
      <trkpt lat="44.25462" lon="0.61023">
        <ele>147.69970703125</ele>
        <time>2015-02-19T14:39:11Z</time>
      </trkpt>
      <trkpt lat="44.25456" lon="0.60996">
        <ele>149.62231445312</ele>
        <time>2015-02-19T14:39:30Z</time>
      </trkpt>
      <trkpt lat="44.2545" lon="0.6097">
        <ele>146.2578125</ele>
        <time>2015-02-19T14:39:49Z</time>
      </trkpt>
      <trkpt lat="44.25448" lon="0.6096">
        <ele>146.73840332031</ele>
        <time>2015-02-19T14:39:55Z</time>
      </trkpt>
      <trkpt lat="44.25442" lon="0.60931">
        <ele>145.29638671875</ele>
        <time>2015-02-19T14:40:15Z</time>
      </trkpt>
      <trkpt lat="44.25437" lon="0.60912">
        <ele>142.89306640625</ele>
        <time>2015-02-19T14:40:29Z</time>
      </trkpt>
      <trkpt lat="44.25432" lon="0.60887">
        <ele>140.00915527344</ele>
        <time>2015-02-19T14:40:47Z</time>
      </trkpt>
      <trkpt lat="44.25429" lon="0.60876">
        <ele>141.45104980469</ele>
        <time>2015-02-19T14:40:52Z</time>
      </trkpt>
      <trkpt lat="44.25425" lon="0.60848">
        <ele>140.48986816406</ele>
        <time>2015-02-19T14:41:10Z</time>
      </trkpt>
      <trkpt lat="44.25417" lon="0.60821">
        <ele>140.97045898438</ele>
        <time>2015-02-19T14:41:31Z</time>
      </trkpt>
      <trkpt lat="44.25408" lon="0.60808">
        <ele>141.93176269531</ele>
        <time>2015-02-19T14:41:42Z</time>
      </trkpt>
      <trkpt lat="44.25397" lon="0.60791">
        <ele>140.00915527344</ele>
        <time>2015-02-19T14:41:56Z</time>
      </trkpt>
      <trkpt lat="44.25391" lon="0.60786">
        <ele>140.00915527344</ele>
        <time>2015-02-19T14:42:02Z</time>
      </trkpt>
      <trkpt lat="44.25384" lon="0.60782">
        <ele>139.52844238281</ele>
        <time>2015-02-19T14:42:09Z</time>
      </trkpt>
      <trkpt lat="44.25379" lon="0.60779">
        <ele>141.45104980469</ele>
        <time>2015-02-19T14:42:16Z</time>
      </trkpt>
      <trkpt lat="44.25363" lon="0.60763">
        <ele>144.81579589844</ele>
        <time>2015-02-19T14:42:31Z</time>
      </trkpt>
      <trkpt lat="44.25351" lon="0.60749">
        <ele>149.62231445312</ele>
        <time>2015-02-19T14:42:44Z</time>
      </trkpt>
      <trkpt lat="44.25325" lon="0.60729">
        <ele>154.42895507812</ele>
        <time>2015-02-19T14:43:11Z</time>
      </trkpt>
      <trkpt lat="44.25306" lon="0.60719">
        <ele>153.94836425781</ele>
        <time>2015-02-19T14:43:30Z</time>
      </trkpt>
      <trkpt lat="44.25291" lon="0.60699">
        <ele>151.544921875</ele>
        <time>2015-02-19T14:43:50Z</time>
      </trkpt>
      <trkpt lat="44.25287" lon="0.60686">
        <ele>152.50634765625</ele>
        <time>2015-02-19T14:43:58Z</time>
      </trkpt>
      <trkpt lat="44.25284" lon="0.60675">
        <ele>152.50634765625</ele>
        <time>2015-02-19T14:44:19Z</time>
      </trkpt>
      <trkpt lat="44.25282" lon="0.60656">
        <ele>152.02575683594</ele>
        <time>2015-02-19T14:44:38Z</time>
      </trkpt>
      <trkpt lat="44.25276" lon="0.60628">
        <ele>151.06420898438</ele>
        <time>2015-02-19T14:44:58Z</time>
      </trkpt>
      <trkpt lat="44.25269" lon="0.60599">
        <ele>151.544921875</ele>
        <time>2015-02-19T14:45:21Z</time>
      </trkpt>
      <trkpt lat="44.25262" lon="0.60567">
        <ele>150.10302734375</ele>
        <time>2015-02-19T14:45:43Z</time>
      </trkpt>
      <trkpt lat="44.25254" lon="0.60532">
        <ele>149.62231445312</ele>
        <time>2015-02-19T14:46:06Z</time>
      </trkpt>
      <trkpt lat="44.25249" lon="0.60504">
        <ele>148.18041992188</ele>
        <time>2015-02-19T14:46:24Z</time>
      </trkpt>
      <trkpt lat="44.25247" lon="0.60501">
        <ele>147.69970703125</ele>
        <time>2015-02-19T14:46:27Z</time>
      </trkpt>
      <trkpt lat="44.25241" lon="0.60472">
        <ele>148.18041992188</ele>
        <time>2015-02-19T14:46:45Z</time>
      </trkpt>
      <trkpt lat="44.25232" lon="0.60441">
        <ele>148.66101074219</ele>
        <time>2015-02-19T14:47:06Z</time>
      </trkpt>
      <trkpt lat="44.25223" lon="0.60408">
        <ele>149.62231445312</ele>
        <time>2015-02-19T14:47:28Z</time>
      </trkpt>
      <trkpt lat="44.25216" lon="0.60383">
        <ele>149.1416015625</ele>
        <time>2015-02-19T14:47:46Z</time>
      </trkpt>
      <trkpt lat="44.25209" lon="0.60353">
        <ele>149.1416015625</ele>
        <time>2015-02-19T14:48:06Z</time>
      </trkpt>
      <trkpt lat="44.25201" lon="0.60325">
        <ele>149.62231445312</ele>
        <time>2015-02-19T14:48:24Z</time>
      </trkpt>
      <trkpt lat="44.25196" lon="0.60302">
        <ele>149.1416015625</ele>
        <time>2015-02-19T14:48:41Z</time>
      </trkpt>
      <trkpt lat="44.25189" lon="0.60288">
        <ele>149.1416015625</ele>
        <time>2015-02-19T14:48:56Z</time>
      </trkpt>
      <trkpt lat="44.25183" lon="0.60265">
        <ele>150.10302734375</ele>
        <time>2015-02-19T14:49:15Z</time>
      </trkpt>
      <trkpt lat="44.25181" lon="0.60254">
        <ele>151.544921875</ele>
        <time>2015-02-19T14:49:28Z</time>
      </trkpt>
      <trkpt lat="44.2517" lon="0.60229">
        <ele>152.98693847656</ele>
        <time>2015-02-19T14:49:56Z</time>
      </trkpt>
      <trkpt lat="44.2517" lon="0.60228">
        <ele>153.46765136719</ele>
        <time>2015-02-19T14:50:37Z</time>
      </trkpt>
      <trkpt lat="44.25168" lon="0.60227">
        <ele>154.90954589844</ele>
        <time>2015-02-19T14:51:11Z</time>
      </trkpt>
      <trkpt lat="44.25166" lon="0.60227">
        <ele>155.39025878906</ele>
        <time>2015-02-19T14:52:04Z</time>
      </trkpt>
      <trkpt lat="44.25136" lon="0.60242">
        <ele>152.02575683594</ele>
        <time>2015-02-19T14:52:30Z</time>
      </trkpt>
      <trkpt lat="44.25125" lon="0.60248">
        <ele>151.544921875</ele>
        <time>2015-02-19T14:52:43Z</time>
      </trkpt>
      <trkpt lat="44.25113" lon="0.60253">
        <ele>152.02575683594</ele>
        <time>2015-02-19T14:52:53Z</time>
      </trkpt>
      <trkpt lat="44.25105" lon="0.60252">
        <ele>152.98693847656</ele>
        <time>2015-02-19T14:52:59Z</time>
      </trkpt>
      <trkpt lat="44.25103" lon="0.60254">
        <ele>152.98693847656</ele>
        <time>2015-02-19T14:53:01Z</time>
      </trkpt>
      <trkpt lat="44.25089" lon="0.60261">
        <ele>153.46765136719</ele>
        <time>2015-02-19T14:53:17Z</time>
      </trkpt>
      <trkpt lat="44.25071" lon="0.60266">
        <ele>152.98693847656</ele>
        <time>2015-02-19T14:53:36Z</time>
      </trkpt>
      <trkpt lat="44.25055" lon="0.60272">
        <ele>151.06420898438</ele>
        <time>2015-02-19T14:53:53Z</time>
      </trkpt>
      <trkpt lat="44.25038" lon="0.60278">
        <ele>152.50634765625</ele>
        <time>2015-02-19T14:54:11Z</time>
      </trkpt>
      <trkpt lat="44.25024" lon="0.60283">
        <ele>150.10302734375</ele>
        <time>2015-02-19T14:54:27Z</time>
      </trkpt>
      <trkpt lat="44.25018" lon="0.60282">
        <ele>149.62231445312</ele>
        <time>2015-02-19T14:54:33Z</time>
      </trkpt>
      <trkpt lat="44.24999" lon="0.60266">
        <ele>145.77709960938</ele>
        <time>2015-02-19T14:54:53Z</time>
      </trkpt>
      <trkpt lat="44.24989" lon="0.60253">
        <ele>144.81579589844</ele>
        <time>2015-02-19T14:55:06Z</time>
      </trkpt>
      <trkpt lat="44.24981" lon="0.6024">
        <ele>144.33520507812</ele>
        <time>2015-02-19T14:55:22Z</time>
      </trkpt>
      <trkpt lat="44.24966" lon="0.60233">
        <ele>147.21899414062</ele>
        <time>2015-02-19T14:55:37Z</time>
      </trkpt>
      <trkpt lat="44.24947" lon="0.60234">
        <ele>151.06420898438</ele>
        <time>2015-02-19T14:55:57Z</time>
      </trkpt>
      <trkpt lat="44.24931" lon="0.60238">
        <ele>154.42895507812</ele>
        <time>2015-02-19T14:56:17Z</time>
      </trkpt>
      <trkpt lat="44.2492" lon="0.60247">
        <ele>157.31286621094</ele>
        <time>2015-02-19T14:56:35Z</time>
      </trkpt>
      <trkpt lat="44.24908" lon="0.6025">
        <ele>161.158203125</ele>
        <time>2015-02-19T14:56:53Z</time>
      </trkpt>
      <trkpt lat="44.24895" lon="0.60256">
        <ele>165.96472167969</ele>
        <time>2015-02-19T14:57:13Z</time>
      </trkpt>
      <trkpt lat="44.24885" lon="0.60251">
        <ele>162.11950683594</ele>
        <time>2015-02-19T14:57:29Z</time>
      </trkpt>
      <trkpt lat="44.24871" lon="0.60252">
        <ele>161.63891601562</ele>
        <time>2015-02-19T14:57:46Z</time>
      </trkpt>
      <trkpt lat="44.24867" lon="0.60251">
        <ele>161.158203125</ele>
        <time>2015-02-19T14:57:51Z</time>
      </trkpt>
      <trkpt lat="44.2484" lon="0.60252">
        <ele>152.50634765625</ele>
        <time>2015-02-19T14:58:11Z</time>
      </trkpt>
      <trkpt lat="44.24824" lon="0.60258">
        <ele>145.29638671875</ele>
        <time>2015-02-19T14:58:30Z</time>
      </trkpt>
      <trkpt lat="44.24803" lon="0.60262">
        <ele>136.64465332031</ele>
        <time>2015-02-19T14:58:50Z</time>
      </trkpt>
      <trkpt lat="44.24785" lon="0.60276">
        <ele>126.55065917969</ele>
        <time>2015-02-19T14:59:14Z</time>
      </trkpt>
      <trkpt lat="44.24769" lon="0.60289">
        <ele>118.86010742188</ele>
        <time>2015-02-19T14:59:34Z</time>
      </trkpt>
      <trkpt lat="44.24767" lon="0.6029">
        <ele>118.86010742188</ele>
        <time>2015-02-19T14:59:36Z</time>
      </trkpt>
      <trkpt lat="44.24764" lon="0.60291">
        <ele>117.89880371094</ele>
        <time>2015-02-19T14:59:39Z</time>
      </trkpt>
      <trkpt lat="44.24749" lon="0.60299">
        <ele>109.24694824219</ele>
        <time>2015-02-19T14:59:56Z</time>
      </trkpt>
      <trkpt lat="44.24736" lon="0.60306">
        <ele>101.55639648438</ele>
        <time>2015-02-19T15:00:13Z</time>
      </trkpt>
      <trkpt lat="44.24719" lon="0.60314">
        <ele>95.788452148438</ele>
        <time>2015-02-19T15:00:35Z</time>
      </trkpt>
      <trkpt lat="44.24702" lon="0.60315">
        <ele>93.385131835938</ele>
        <time>2015-02-19T15:00:54Z</time>
      </trkpt>
      <trkpt lat="44.24697" lon="0.60315">
        <ele>92.423950195312</ele>
        <time>2015-02-19T15:01:00Z</time>
      </trkpt>
      <trkpt lat="44.24691" lon="0.60318">
        <ele>90.98193359375</ele>
        <time>2015-02-19T15:01:07Z</time>
      </trkpt>
      <trkpt lat="44.24669" lon="0.60316">
        <ele>87.136596679688</ele>
        <time>2015-02-19T15:01:30Z</time>
      </trkpt>
      <trkpt lat="44.24658" lon="0.60318">
        <ele>87.6171875</ele>
        <time>2015-02-19T15:01:45Z</time>
      </trkpt>
      <trkpt lat="44.2465" lon="0.60322">
        <ele>88.098022460938</ele>
        <time>2015-02-19T15:02:02Z</time>
      </trkpt>
      <trkpt lat="44.24637" lon="0.60326">
        <ele>85.694580078125</ele>
        <time>2015-02-19T15:02:25Z</time>
      </trkpt>
      <trkpt lat="44.24621" lon="0.60328">
        <ele>85.694580078125</ele>
        <time>2015-02-19T15:02:44Z</time>
      </trkpt>
      <trkpt lat="44.24617" lon="0.60326">
        <ele>85.694580078125</ele>
        <time>2015-02-19T15:02:49Z</time>
      </trkpt>
      <trkpt lat="44.24611" lon="0.60326">
        <ele>84.7333984375</ele>
        <time>2015-02-19T15:02:54Z</time>
      </trkpt>
      <trkpt lat="44.24604" lon="0.60323">
        <ele>85.213989257812</ele>
        <time>2015-02-19T15:03:01Z</time>
      </trkpt>
      <trkpt lat="44.24591" lon="0.60319">
        <ele>84.252685546875</ele>
        <time>2015-02-19T15:03:16Z</time>
      </trkpt>
      <trkpt lat="44.24586" lon="0.60318">
        <ele>82.810791015625</ele>
        <time>2015-02-19T15:03:22Z</time>
      </trkpt>
      <trkpt lat="44.24574" lon="0.60337">
        <ele>77.042846679688</ele>
        <time>2015-02-19T15:03:38Z</time>
      </trkpt>
      <trkpt lat="44.24563" lon="0.60346">
        <ele>78.965454101562</ele>
        <time>2015-02-19T15:03:53Z</time>
      </trkpt>
      <trkpt lat="44.24552" lon="0.60354">
        <ele>79.446044921875</ele>
        <time>2015-02-19T15:04:05Z</time>
      </trkpt>
      <trkpt lat="44.24551" lon="0.60354">
        <ele>78.965454101562</ele>
        <time>2015-02-19T15:04:06Z</time>
      </trkpt>
      <trkpt lat="44.24542" lon="0.60364">
        <ele>79.446044921875</ele>
        <time>2015-02-19T15:04:21Z</time>
      </trkpt>
      <trkpt lat="44.24536" lon="0.60368">
        <ele>80.407470703125</ele>
        <time>2015-02-19T15:04:40Z</time>
      </trkpt>
      <trkpt lat="44.24536" lon="0.60368">
        <ele>80.407470703125</ele>
        <time>2015-02-19T15:04:43Z</time>
      </trkpt>
      <trkpt lat="44.2453" lon="0.60361">
        <ele>82.330078125</ele>
        <time>2015-02-19T15:04:58Z</time>
      </trkpt>
      <trkpt lat="44.24525" lon="0.6036">
        <ele>79.446044921875</ele>
        <time>2015-02-19T15:05:44Z</time>
      </trkpt>
      <trkpt lat="44.24523" lon="0.60355">
        <ele>78.004028320312</ele>
        <time>2015-02-19T15:05:50Z</time>
      </trkpt>
      <trkpt lat="44.24516" lon="0.60342">
        <ele>75.600830078125</ele>
        <time>2015-02-19T15:06:02Z</time>
      </trkpt>
      <trkpt lat="44.24516" lon="0.60339">
        <ele>75.600830078125</ele>
        <time>2015-02-19T15:06:04Z</time>
      </trkpt>
      <trkpt lat="44.24506" lon="0.60324">
        <ele>73.197631835938</ele>
        <time>2015-02-19T15:06:17Z</time>
      </trkpt>
      <trkpt lat="44.24495" lon="0.60309">
        <ele>71.27490234375</ele>
        <time>2015-02-19T15:06:31Z</time>
      </trkpt>
      <trkpt lat="44.24482" lon="0.60294">
        <ele>67.4296875</ele>
        <time>2015-02-19T15:06:46Z</time>
      </trkpt>
      <trkpt lat="44.2447" lon="0.60282">
        <ele>63.584350585938</ele>
        <time>2015-02-19T15:07:02Z</time>
      </trkpt>
      <trkpt lat="44.24466" lon="0.60272">
        <ele>62.622924804688</ele>
        <time>2015-02-19T15:07:09Z</time>
      </trkpt>
      <trkpt lat="44.24462" lon="0.60247">
        <ele>57.816528320312</ele>
        <time>2015-02-19T15:07:25Z</time>
      </trkpt>
      <trkpt lat="44.24459" lon="0.60227">
        <ele>54.451782226562</ele>
        <time>2015-02-19T15:07:39Z</time>
      </trkpt>
      <trkpt lat="44.24452" lon="0.60213">
        <ele>53.97119140625</ele>
        <time>2015-02-19T15:07:51Z</time>
      </trkpt>
      <trkpt lat="44.24446" lon="0.60202">
        <ele>53.97119140625</ele>
        <time>2015-02-19T15:07:58Z</time>
      </trkpt>
      <trkpt lat="44.24435" lon="0.60201">
        <ele>53.009765625</ele>
        <time>2015-02-19T15:08:13Z</time>
      </trkpt>
      <trkpt lat="44.24411" lon="0.60215">
        <ele>48.683959960938</ele>
        <time>2015-02-19T15:08:38Z</time>
      </trkpt>
      <trkpt lat="44.24397" lon="0.60218">
        <ele>47.241821289062</ele>
        <time>2015-02-19T15:08:56Z</time>
      </trkpt>
      <trkpt lat="44.24386" lon="0.60215">
        <ele>45.799926757812</ele>
        <time>2015-02-19T15:09:12Z</time>
      </trkpt>
      <trkpt lat="44.24375" lon="0.60214">
        <ele>44.358032226562</ele>
        <time>2015-02-19T15:09:33Z</time>
      </trkpt>
      <trkpt lat="44.24362" lon="0.60206">
        <ele>42.916015625</ele>
        <time>2015-02-19T15:09:53Z</time>
      </trkpt>
      <trkpt lat="44.2434" lon="0.60193">
        <ele>45.799926757812</ele>
        <time>2015-02-19T15:10:19Z</time>
      </trkpt>
      <trkpt lat="44.24328" lon="0.60184">
        <ele>46.76123046875</ele>
        <time>2015-02-19T15:10:35Z</time>
      </trkpt>
      <trkpt lat="44.24324" lon="0.60182">
        <ele>46.76123046875</ele>
        <time>2015-02-19T15:10:40Z</time>
      </trkpt>
      <trkpt lat="44.24302" lon="0.60179">
        <ele>47.722534179688</ele>
        <time>2015-02-19T15:11:05Z</time>
      </trkpt>
      <trkpt lat="44.24296" lon="0.60181">
        <ele>49.16455078125</ele>
        <time>2015-02-19T15:11:13Z</time>
      </trkpt>
      <trkpt lat="44.24286" lon="0.60182">
        <ele>49.16455078125</ele>
        <time>2015-02-19T15:11:24Z</time>
      </trkpt>
      <trkpt lat="44.24268" lon="0.60186">
        <ele>49.645263671875</ele>
        <time>2015-02-19T15:11:43Z</time>
      </trkpt>
      <trkpt lat="44.24251" lon="0.60189">
        <ele>50.1259765625</ele>
        <time>2015-02-19T15:11:59Z</time>
      </trkpt>
      <trkpt lat="44.24242" lon="0.60192">
        <ele>51.087158203125</ele>
        <time>2015-02-19T15:12:09Z</time>
      </trkpt>
      <trkpt lat="44.24233" lon="0.60198">
        <ele>50.606567382812</ele>
        <time>2015-02-19T15:12:21Z</time>
      </trkpt>
      <trkpt lat="44.2421" lon="0.60203">
        <ele>50.1259765625</ele>
        <time>2015-02-19T15:12:43Z</time>
      </trkpt>
      <trkpt lat="44.24207" lon="0.60204">
        <ele>50.1259765625</ele>
        <time>2015-02-19T15:12:46Z</time>
      </trkpt>
      <trkpt lat="44.24183" lon="0.60189">
        <ele>68.390869140625</ele>
        <time>2015-02-19T15:13:04Z</time>
      </trkpt>
      <trkpt lat="44.24163" lon="0.60195">
        <ele>72.236206054688</ele>
        <time>2015-02-19T15:13:22Z</time>
      </trkpt>
      <trkpt lat="44.24147" lon="0.60205">
        <ele>72.716918945312</ele>
        <time>2015-02-19T15:13:41Z</time>
      </trkpt>
      <trkpt lat="44.24131" lon="0.60215">
        <ele>70.3134765625</ele>
        <time>2015-02-19T15:13:59Z</time>
      </trkpt>
      <trkpt lat="44.24113" lon="0.60228">
        <ele>71.27490234375</ele>
        <time>2015-02-19T15:14:17Z</time>
      </trkpt>
      <trkpt lat="44.24097" lon="0.60234">
        <ele>70.3134765625</ele>
        <time>2015-02-19T15:14:33Z</time>
      </trkpt>
      <trkpt lat="44.24085" lon="0.60251">
        <ele>72.236206054688</ele>
        <time>2015-02-19T15:14:55Z</time>
      </trkpt>
      <trkpt lat="44.24086" lon="0.60268">
        <ele>72.236206054688</ele>
        <time>2015-02-19T15:15:11Z</time>
      </trkpt>
      <trkpt lat="44.24091" lon="0.60285">
        <ele>72.236206054688</ele>
        <time>2015-02-19T15:15:29Z</time>
      </trkpt>
      <trkpt lat="44.24092" lon="0.60287">
        <ele>71.755493164062</ele>
        <time>2015-02-19T15:15:31Z</time>
      </trkpt>
      <trkpt lat="44.24099" lon="0.60307">
        <ele>73.67822265625</ele>
        <time>2015-02-19T15:15:48Z</time>
      </trkpt>
      <trkpt lat="44.24105" lon="0.60317">
        <ele>74.158813476562</ele>
        <time>2015-02-19T15:16:01Z</time>
      </trkpt>
      <trkpt lat="44.24112" lon="0.60336">
        <ele>76.081420898438</ele>
        <time>2015-02-19T15:16:20Z</time>
      </trkpt>
      <trkpt lat="44.24118" lon="0.6035">
        <ele>78.004028320312</ele>
        <time>2015-02-19T15:16:37Z</time>
      </trkpt>
      <trkpt lat="44.24125" lon="0.60362">
        <ele>78.965454101562</ele>
        <time>2015-02-19T15:16:59Z</time>
      </trkpt>
      <trkpt lat="44.24128" lon="0.60375">
        <ele>80.88818359375</ele>
        <time>2015-02-19T15:17:15Z</time>
      </trkpt>
      <trkpt lat="44.24132" lon="0.60389">
        <ele>81.849365234375</ele>
        <time>2015-02-19T15:17:30Z</time>
      </trkpt>
      <trkpt lat="44.24136" lon="0.604">
        <ele>83.77197265625</ele>
        <time>2015-02-19T15:17:44Z</time>
      </trkpt>
      <trkpt lat="44.2414" lon="0.60414">
        <ele>84.7333984375</ele>
        <time>2015-02-19T15:18:08Z</time>
      </trkpt>
      <trkpt lat="44.24142" lon="0.60427">
        <ele>89.059326171875</ele>
        <time>2015-02-19T15:18:23Z</time>
      </trkpt>
      <trkpt lat="44.24142" lon="0.60436">
        <ele>91.462524414062</ele>
        <time>2015-02-19T15:18:39Z</time>
      </trkpt>
      <trkpt lat="44.24146" lon="0.60453">
        <ele>95.307739257812</ele>
        <time>2015-02-19T15:18:58Z</time>
      </trkpt>
      <trkpt lat="44.24146" lon="0.60458">
        <ele>96.269287109375</ele>
        <time>2015-02-19T15:19:15Z</time>
      </trkpt>
      <trkpt lat="44.24147" lon="0.60467">
        <ele>99.6337890625</ele>
        <time>2015-02-19T15:19:33Z</time>
      </trkpt>
      <trkpt lat="44.24146" lon="0.60481">
        <ele>100.11450195312</ele>
        <time>2015-02-19T15:19:55Z</time>
      </trkpt>
      <trkpt lat="44.2414" lon="0.60494">
        <ele>99.6337890625</ele>
        <time>2015-02-19T15:20:11Z</time>
      </trkpt>
      <trkpt lat="44.24136" lon="0.60495">
        <ele>101.55639648438</ele>
        <time>2015-02-19T15:21:06Z</time>
      </trkpt>
      <trkpt lat="44.24142" lon="0.60496">
        <ele>100.11450195312</ele>
        <time>2015-02-19T15:22:24Z</time>
      </trkpt>
      <trkpt lat="44.24162" lon="0.60501">
        <ele>100.11450195312</ele>
        <time>2015-02-19T15:22:43Z</time>
      </trkpt>
      <trkpt lat="44.24179" lon="0.60511">
        <ele>98.19189453125</ele>
        <time>2015-02-19T15:23:00Z</time>
      </trkpt>
      <trkpt lat="44.24197" lon="0.60516">
        <ele>96.269287109375</ele>
        <time>2015-02-19T15:23:19Z</time>
      </trkpt>
      <trkpt lat="44.24222" lon="0.60514">
        <ele>97.711181640625</ele>
        <time>2015-02-19T15:23:39Z</time>
      </trkpt>
      <trkpt lat="44.24223" lon="0.6052">
        <ele>97.711181640625</ele>
        <time>2015-02-19T15:23:47Z</time>
      </trkpt>
      <trkpt lat="44.24225" lon="0.60542">
        <ele>100.59509277344</ele>
        <time>2015-02-19T15:24:05Z</time>
      </trkpt>
      <trkpt lat="44.24229" lon="0.60561">
        <ele>100.11450195312</ele>
        <time>2015-02-19T15:24:22Z</time>
      </trkpt>
      <trkpt lat="44.24233" lon="0.60574">
        <ele>100.59509277344</ele>
        <time>2015-02-19T15:24:33Z</time>
      </trkpt>
      <trkpt lat="44.24234" lon="0.60596">
        <ele>99.153076171875</ele>
        <time>2015-02-19T15:24:49Z</time>
      </trkpt>
      <trkpt lat="44.2424" lon="0.60627">
        <ele>99.153076171875</ele>
        <time>2015-02-19T15:25:11Z</time>
      </trkpt>
      <trkpt lat="44.24246" lon="0.60649">
        <ele>101.07568359375</ele>
        <time>2015-02-19T15:25:27Z</time>
      </trkpt>
      <trkpt lat="44.24247" lon="0.60661">
        <ele>101.07568359375</ele>
        <time>2015-02-19T15:25:34Z</time>
      </trkpt>
      <trkpt lat="44.24254" lon="0.60687">
        <ele>101.55639648438</ele>
        <time>2015-02-19T15:25:54Z</time>
      </trkpt>
      <trkpt lat="44.24261" lon="0.60713">
        <ele>102.51770019531</ele>
        <time>2015-02-19T15:26:12Z</time>
      </trkpt>
      <trkpt lat="44.24269" lon="0.60731">
        <ele>101.55639648438</ele>
        <time>2015-02-19T15:26:27Z</time>
      </trkpt>
      <trkpt lat="44.24278" lon="0.60743">
        <ele>102.51770019531</ele>
        <time>2015-02-19T15:26:38Z</time>
      </trkpt>
      <trkpt lat="44.24291" lon="0.60755">
        <ele>106.36303710938</ele>
        <time>2015-02-19T15:26:52Z</time>
      </trkpt>
      <trkpt lat="44.24292" lon="0.60755">
        <ele>106.36303710938</ele>
        <time>2015-02-19T15:26:54Z</time>
      </trkpt>
      <trkpt lat="44.24305" lon="0.60771">
        <ele>108.76623535156</ele>
        <time>2015-02-19T15:27:15Z</time>
      </trkpt>
      <trkpt lat="44.2431" lon="0.60788">
        <ele>111.65026855469</ele>
        <time>2015-02-19T15:27:30Z</time>
      </trkpt>
      <trkpt lat="44.24312" lon="0.60809">
        <ele>112.61157226562</ele>
        <time>2015-02-19T15:27:47Z</time>
      </trkpt>
      <trkpt lat="44.24312" lon="0.60825">
        <ele>110.20825195312</ele>
        <time>2015-02-19T15:28:07Z</time>
      </trkpt>
      <trkpt lat="44.24312" lon="0.6084">
        <ele>111.65026855469</ele>
        <time>2015-02-19T15:28:26Z</time>
      </trkpt>
      <trkpt lat="44.2431" lon="0.60848">
        <ele>113.57299804688</ele>
        <time>2015-02-19T15:28:43Z</time>
      </trkpt>
      <trkpt lat="44.24308" lon="0.60861">
        <ele>114.5341796875</ele>
        <time>2015-02-19T15:28:58Z</time>
      </trkpt>
      <trkpt lat="44.24307" lon="0.60876">
        <ele>116.9375</ele>
        <time>2015-02-19T15:29:21Z</time>
      </trkpt>
      <trkpt lat="44.24309" lon="0.6089">
        <ele>117.41821289062</ele>
        <time>2015-02-19T15:29:45Z</time>
      </trkpt>
      <trkpt lat="44.24306" lon="0.60902">
        <ele>119.3408203125</ele>
        <time>2015-02-19T15:30:03Z</time>
      </trkpt>
      <trkpt lat="44.24302" lon="0.60919">
        <ele>120.78283691406</ele>
        <time>2015-02-19T15:30:26Z</time>
      </trkpt>
      <trkpt lat="44.243" lon="0.60929">
        <ele>122.22473144531</ele>
        <time>2015-02-19T15:30:48Z</time>
      </trkpt>
      <trkpt lat="44.24295" lon="0.60941">
        <ele>123.66674804688</ele>
        <time>2015-02-19T15:31:09Z</time>
      </trkpt>
      <trkpt lat="44.2429" lon="0.60951">
        <ele>124.62805175781</ele>
        <time>2015-02-19T15:31:34Z</time>
      </trkpt>
      <trkpt lat="44.24273" lon="0.60971">
        <ele>131.35729980469</ele>
        <time>2015-02-19T15:32:03Z</time>
      </trkpt>
      <trkpt lat="44.24267" lon="0.60991">
        <ele>133.76049804688</ele>
        <time>2015-02-19T15:32:25Z</time>
      </trkpt>
      <trkpt lat="44.2426" lon="0.61008">
        <ele>135.68310546875</ele>
        <time>2015-02-19T15:32:44Z</time>
      </trkpt>
      <trkpt lat="44.24256" lon="0.61024">
        <ele>136.64465332031</ele>
        <time>2015-02-19T15:33:03Z</time>
      </trkpt>
      <trkpt lat="44.24252" lon="0.61032">
        <ele>138.56726074219</ele>
        <time>2015-02-19T15:33:21Z</time>
      </trkpt>
      <trkpt lat="44.24249" lon="0.61048">
        <ele>138.08654785156</ele>
        <time>2015-02-19T15:33:41Z</time>
      </trkpt>
      <trkpt lat="44.24243" lon="0.61068">
        <ele>137.60583496094</ele>
        <time>2015-02-19T15:33:57Z</time>
      </trkpt>
      <trkpt lat="44.24224" lon="0.61082">
        <ele>137.60583496094</ele>
        <time>2015-02-19T15:34:19Z</time>
      </trkpt>
      <trkpt lat="44.24218" lon="0.61088">
        <ele>137.60583496094</ele>
        <time>2015-02-19T15:34:30Z</time>
      </trkpt>
      <trkpt lat="44.24218" lon="0.61102">
        <ele>139.0478515625</ele>
        <time>2015-02-19T15:34:50Z</time>
      </trkpt>
      <trkpt lat="44.2422" lon="0.61119">
        <ele>140.00915527344</ele>
        <time>2015-02-19T15:35:02Z</time>
      </trkpt>
      <trkpt lat="44.24218" lon="0.61128">
        <ele>140.48986816406</ele>
        <time>2015-02-19T15:35:09Z</time>
      </trkpt>
      <trkpt lat="44.24216" lon="0.61133">
        <ele>140.97045898438</ele>
        <time>2015-02-19T15:35:15Z</time>
      </trkpt>
      <trkpt lat="44.24202" lon="0.61148">
        <ele>139.52844238281</ele>
        <time>2015-02-19T15:35:33Z</time>
      </trkpt>
      <trkpt lat="44.24192" lon="0.61163">
        <ele>138.56726074219</ele>
        <time>2015-02-19T15:35:49Z</time>
      </trkpt>
      <trkpt lat="44.24184" lon="0.61186">
        <ele>140.97045898438</ele>
        <time>2015-02-19T15:36:07Z</time>
      </trkpt>
      <trkpt lat="44.24181" lon="0.61197">
        <ele>143.85437011719</ele>
        <time>2015-02-19T15:36:25Z</time>
      </trkpt>
      <trkpt lat="44.24178" lon="0.61212">
        <ele>148.18041992188</ele>
        <time>2015-02-19T15:36:40Z</time>
      </trkpt>
      <trkpt lat="44.24178" lon="0.6124">
        <ele>150.58361816406</ele>
        <time>2015-02-19T15:37:03Z</time>
      </trkpt>
      <trkpt lat="44.24178" lon="0.61244">
        <ele>151.06420898438</ele>
        <time>2015-02-19T15:37:32Z</time>
      </trkpt>
      <trkpt lat="44.24179" lon="0.61253">
        <ele>151.544921875</ele>
        <time>2015-02-19T15:38:01Z</time>
      </trkpt>
      <trkpt lat="44.24184" lon="0.61274">
        <ele>152.98693847656</ele>
        <time>2015-02-19T15:38:20Z</time>
      </trkpt>
      <trkpt lat="44.24189" lon="0.61309">
        <ele>154.42895507812</ele>
        <time>2015-02-19T15:38:47Z</time>
      </trkpt>
      <trkpt lat="44.24194" lon="0.61346">
        <ele>155.87097167969</ele>
        <time>2015-02-19T15:39:14Z</time>
      </trkpt>
      <trkpt lat="44.24198" lon="0.61376">
        <ele>157.79357910156</ele>
        <time>2015-02-19T15:39:35Z</time>
      </trkpt>
      <trkpt lat="44.24202" lon="0.61411">
        <ele>158.75476074219</ele>
        <time>2015-02-19T15:40:00Z</time>
      </trkpt>
      <trkpt lat="44.24209" lon="0.61435">
        <ele>160.19689941406</ele>
        <time>2015-02-19T15:40:19Z</time>
      </trkpt>
      <trkpt lat="44.24218" lon="0.61451">
        <ele>161.63891601562</ele>
        <time>2015-02-19T15:40:37Z</time>
      </trkpt>
      <trkpt lat="44.2423" lon="0.61472">
        <ele>162.60009765625</ele>
        <time>2015-02-19T15:40:59Z</time>
      </trkpt>
      <trkpt lat="44.24244" lon="0.61493">
        <ele>164.04211425781</ele>
        <time>2015-02-19T15:41:21Z</time>
      </trkpt>
      <trkpt lat="44.24251" lon="0.61504">
        <ele>164.04211425781</ele>
        <time>2015-02-19T15:41:35Z</time>
      </trkpt>
      <trkpt lat="44.24262" lon="0.61522">
        <ele>166.4453125</ele>
        <time>2015-02-19T15:41:55Z</time>
      </trkpt>
      <trkpt lat="44.24277" lon="0.6155">
        <ele>168.36804199219</ele>
        <time>2015-02-19T15:42:23Z</time>
      </trkpt>
      <trkpt lat="44.24279" lon="0.61566">
        <ele>168.84875488281</ele>
        <time>2015-02-19T15:42:35Z</time>
      </trkpt>
      <trkpt lat="44.24272" lon="0.61607">
        <ele>168.36804199219</ele>
        <time>2015-02-19T15:43:04Z</time>
      </trkpt>
      <trkpt lat="44.24263" lon="0.61645">
        <ele>170.77136230469</ele>
        <time>2015-02-19T15:43:33Z</time>
      </trkpt>
      <trkpt lat="44.24263" lon="0.6168">
        <ele>175.09729003906</ele>
        <time>2015-02-19T15:43:57Z</time>
      </trkpt>
      <trkpt lat="44.2427" lon="0.61704">
        <ele>177.98120117188</ele>
        <time>2015-02-19T15:44:18Z</time>
      </trkpt>
      <trkpt lat="44.24278" lon="0.61727">
        <ele>179.90380859375</ele>
        <time>2015-02-19T15:44:37Z</time>
      </trkpt>
      <trkpt lat="44.24284" lon="0.61746">
        <ele>180.865234375</ele>
        <time>2015-02-19T15:44:54Z</time>
      </trkpt>
      <trkpt lat="44.24284" lon="0.61747">
        <ele>180.865234375</ele>
        <time>2015-02-19T15:44:55Z</time>
      </trkpt>
      <trkpt lat="44.24291" lon="0.61778">
        <ele>181.34582519531</ele>
        <time>2015-02-19T15:45:18Z</time>
      </trkpt>
      <trkpt lat="44.24294" lon="0.61795">
        <ele>183.26843261719</ele>
        <time>2015-02-19T15:45:30Z</time>
      </trkpt>
      <trkpt lat="44.24294" lon="0.61803">
        <ele>183.7490234375</ele>
        <time>2015-02-19T15:45:36Z</time>
      </trkpt>
      <trkpt lat="44.24297" lon="0.61814">
        <ele>182.30712890625</ele>
        <time>2015-02-19T15:45:45Z</time>
      </trkpt>
      <trkpt lat="44.24302" lon="0.61836">
        <ele>181.34582519531</ele>
        <time>2015-02-19T15:46:01Z</time>
      </trkpt>
      <trkpt lat="44.24304" lon="0.61843">
        <ele>181.82641601562</ele>
        <time>2015-02-19T15:46:07Z</time>
      </trkpt>
      <trkpt lat="44.24305" lon="0.61845">
        <ele>181.34582519531</ele>
        <time>2015-02-19T15:46:09Z</time>
      </trkpt>
      <trkpt lat="44.24307" lon="0.61873">
        <ele>181.34582519531</ele>
        <time>2015-02-19T15:46:24Z</time>
      </trkpt>
      <trkpt lat="44.24312" lon="0.61893">
        <ele>180.38452148438</ele>
        <time>2015-02-19T15:46:39Z</time>
      </trkpt>
      <trkpt lat="44.24317" lon="0.61913">
        <ele>179.90380859375</ele>
        <time>2015-02-19T15:46:53Z</time>
      </trkpt>
      <trkpt lat="44.24324" lon="0.61934">
        <ele>180.865234375</ele>
        <time>2015-02-19T15:47:07Z</time>
      </trkpt>
      <trkpt lat="44.2433" lon="0.61952">
        <ele>183.7490234375</ele>
        <time>2015-02-19T15:47:20Z</time>
      </trkpt>
      <trkpt lat="44.24333" lon="0.61956">
        <ele>184.22985839844</ele>
        <time>2015-02-19T15:47:24Z</time>
      </trkpt>
      <trkpt lat="44.24339" lon="0.61977">
        <ele>189.51696777344</ele>
        <time>2015-02-19T15:47:38Z</time>
      </trkpt>
      <trkpt lat="44.24341" lon="0.61986">
        <ele>190.958984375</ele>
        <time>2015-02-19T15:47:44Z</time>
      </trkpt>
      <trkpt lat="44.24346" lon="0.62004">
        <ele>191.92028808594</ele>
        <time>2015-02-19T15:47:58Z</time>
      </trkpt>
      <trkpt lat="44.24353" lon="0.62026">
        <ele>191.43957519531</ele>
        <time>2015-02-19T15:48:14Z</time>
      </trkpt>
      <trkpt lat="44.24355" lon="0.62032">
        <ele>190.958984375</ele>
        <time>2015-02-19T15:48:19Z</time>
      </trkpt>
      <trkpt lat="44.24358" lon="0.62046">
        <ele>190.958984375</ele>
        <time>2015-02-19T15:48:29Z</time>
      </trkpt>
      <trkpt lat="44.2436" lon="0.62058">
        <ele>190.958984375</ele>
        <time>2015-02-19T15:48:36Z</time>
      </trkpt>
      <trkpt lat="44.24362" lon="0.6206">
        <ele>190.958984375</ele>
        <time>2015-02-19T15:48:38Z</time>
      </trkpt>
      <trkpt lat="44.24366" lon="0.62068">
        <ele>189.99768066406</ele>
        <time>2015-02-19T15:48:47Z</time>
      </trkpt>
      <trkpt lat="44.24369" lon="0.62073">
        <ele>189.51696777344</ele>
        <time>2015-02-19T15:48:51Z</time>
      </trkpt>
      <trkpt lat="44.24369" lon="0.62093">
        <ele>190.47839355469</ele>
        <time>2015-02-19T15:49:06Z</time>
      </trkpt>
      <trkpt lat="44.24371" lon="0.62111">
        <ele>192.40112304688</ele>
        <time>2015-02-19T15:49:18Z</time>
      </trkpt>
      <trkpt lat="44.24371" lon="0.62128">
        <ele>193.3623046875</ele>
        <time>2015-02-19T15:49:29Z</time>
      </trkpt>
      <trkpt lat="44.24373" lon="0.62156">
        <ele>192.88171386719</ele>
        <time>2015-02-19T15:49:47Z</time>
      </trkpt>
      <trkpt lat="44.24376" lon="0.62177">
        <ele>190.958984375</ele>
        <time>2015-02-19T15:50:02Z</time>
      </trkpt>
      <trkpt lat="44.24376" lon="0.6218">
        <ele>191.92028808594</ele>
        <time>2015-02-19T15:50:04Z</time>
      </trkpt>
      <trkpt lat="44.24376" lon="0.62186">
        <ele>192.88171386719</ele>
        <time>2015-02-19T15:50:07Z</time>
      </trkpt>
      <trkpt lat="44.24381" lon="0.62207">
        <ele>191.43957519531</ele>
        <time>2015-02-19T15:50:20Z</time>
      </trkpt>
      <trkpt lat="44.24382" lon="0.62225">
        <ele>189.99768066406</ele>
        <time>2015-02-19T15:50:32Z</time>
      </trkpt>
      <trkpt lat="44.24385" lon="0.62241">
        <ele>190.47839355469</ele>
        <time>2015-02-19T15:50:41Z</time>
      </trkpt>
      <trkpt lat="44.24386" lon="0.6225">
        <ele>191.43957519531</ele>
        <time>2015-02-19T15:50:45Z</time>
      </trkpt>
      <trkpt lat="44.2439" lon="0.62276">
        <ele>193.3623046875</ele>
        <time>2015-02-19T15:51:01Z</time>
      </trkpt>
      <trkpt lat="44.24396" lon="0.62289">
        <ele>191.92028808594</ele>
        <time>2015-02-19T15:51:10Z</time>
      </trkpt>
      <trkpt lat="44.244" lon="0.62296">
        <ele>192.40112304688</ele>
        <time>2015-02-19T15:51:15Z</time>
      </trkpt>
      <trkpt lat="44.24405" lon="0.62313">
        <ele>191.92028808594</ele>
        <time>2015-02-19T15:51:26Z</time>
      </trkpt>
      <trkpt lat="44.2442" lon="0.62346">
        <ele>193.3623046875</ele>
        <time>2015-02-19T15:51:50Z</time>
      </trkpt>
      <trkpt lat="44.24435" lon="0.62379">
        <ele>194.32373046875</ele>
        <time>2015-02-19T15:52:14Z</time>
      </trkpt>
      <trkpt lat="44.24449" lon="0.62403">
        <ele>193.84301757812</ele>
        <time>2015-02-19T15:52:34Z</time>
      </trkpt>
      <trkpt lat="44.24462" lon="0.62435">
        <ele>195.28491210938</ele>
        <time>2015-02-19T15:52:57Z</time>
      </trkpt>
      <trkpt lat="44.2447" lon="0.6246">
        <ele>195.765625</ele>
        <time>2015-02-19T15:53:14Z</time>
      </trkpt>
      <trkpt lat="44.24472" lon="0.6247">
        <ele>195.765625</ele>
        <time>2015-02-19T15:53:20Z</time>
      </trkpt>
      <trkpt lat="44.24473" lon="0.62476">
        <ele>197.20751953125</ele>
        <time>2015-02-19T15:53:24Z</time>
      </trkpt>
      <trkpt lat="44.24475" lon="0.62489">
        <ele>198.64953613281</ele>
        <time>2015-02-19T15:53:33Z</time>
      </trkpt>
      <trkpt lat="44.24482" lon="0.62506">
        <ele>190.47839355469</ele>
        <time>2015-02-19T15:53:48Z</time>
      </trkpt>
      <trkpt lat="44.2449" lon="0.62539">
        <ele>189.51696777344</ele>
        <time>2015-02-19T15:54:08Z</time>
      </trkpt>
      <trkpt lat="44.24495" lon="0.62567">
        <ele>188.55578613281</ele>
        <time>2015-02-19T15:54:25Z</time>
      </trkpt>
      <trkpt lat="44.24497" lon="0.62594">
        <ele>188.55578613281</ele>
        <time>2015-02-19T15:54:41Z</time>
      </trkpt>
      <trkpt lat="44.24499" lon="0.62622">
        <ele>186.15246582031</ele>
        <time>2015-02-19T15:55:00Z</time>
      </trkpt>
      <trkpt lat="44.24499" lon="0.62644">
        <ele>185.67175292969</ele>
        <time>2015-02-19T15:55:15Z</time>
      </trkpt>
      <trkpt lat="44.245" lon="0.62661">
        <ele>183.7490234375</ele>
        <time>2015-02-19T15:55:27Z</time>
      </trkpt>
      <trkpt lat="44.24499" lon="0.62665">
        <ele>183.7490234375</ele>
        <time>2015-02-19T15:55:30Z</time>
      </trkpt>
      <trkpt lat="44.245" lon="0.62692">
        <ele>184.71057128906</ele>
        <time>2015-02-19T15:55:46Z</time>
      </trkpt>
      <trkpt lat="44.24505" lon="0.62719">
        <ele>184.71057128906</ele>
        <time>2015-02-19T15:56:06Z</time>
      </trkpt>
      <trkpt lat="44.24509" lon="0.62739">
        <ele>187.59436035156</ele>
        <time>2015-02-19T15:56:19Z</time>
      </trkpt>
      <trkpt lat="44.24513" lon="0.62755">
        <ele>188.55578613281</ele>
        <time>2015-02-19T15:56:31Z</time>
      </trkpt>
      <trkpt lat="44.24517" lon="0.62776">
        <ele>189.51696777344</ele>
        <time>2015-02-19T15:56:45Z</time>
      </trkpt>
      <trkpt lat="44.24522" lon="0.62798">
        <ele>190.958984375</ele>
        <time>2015-02-19T15:56:59Z</time>
      </trkpt>
      <trkpt lat="44.24527" lon="0.62818">
        <ele>190.958984375</ele>
        <time>2015-02-19T15:57:14Z</time>
      </trkpt>
      <trkpt lat="44.24533" lon="0.62843">
        <ele>190.958984375</ele>
        <time>2015-02-19T15:57:32Z</time>
      </trkpt>
      <trkpt lat="44.2454" lon="0.62869">
        <ele>190.958984375</ele>
        <time>2015-02-19T15:57:50Z</time>
      </trkpt>
      <trkpt lat="44.2454" lon="0.62873">
        <ele>190.47839355469</ele>
        <time>2015-02-19T15:57:53Z</time>
      </trkpt>
      <trkpt lat="44.24544" lon="0.62896">
        <ele>189.03637695312</ele>
        <time>2015-02-19T15:58:08Z</time>
      </trkpt>
      <trkpt lat="44.24546" lon="0.62903">
        <ele>188.07507324219</ele>
        <time>2015-02-19T15:58:14Z</time>
      </trkpt>
      <trkpt lat="44.24547" lon="0.62934">
        <ele>188.55578613281</ele>
        <time>2015-02-19T15:58:34Z</time>
      </trkpt>
      <trkpt lat="44.24547" lon="0.62968">
        <ele>190.958984375</ele>
        <time>2015-02-19T15:58:55Z</time>
      </trkpt>
      <trkpt lat="44.24547" lon="0.63004">
        <ele>194.80432128906</ele>
        <time>2015-02-19T15:59:20Z</time>
      </trkpt>
      <trkpt lat="44.24547" lon="0.63033">
        <ele>195.765625</ele>
        <time>2015-02-19T15:59:41Z</time>
      </trkpt>
      <trkpt lat="44.24547" lon="0.63076">
        <ele>197.68823242188</ele>
        <time>2015-02-19T16:00:10Z</time>
      </trkpt>
      <trkpt lat="44.24546" lon="0.63103">
        <ele>197.20751953125</ele>
        <time>2015-02-19T16:00:29Z</time>
      </trkpt>
      <trkpt lat="44.24542" lon="0.63124">
        <ele>197.68823242188</ele>
        <time>2015-02-19T16:00:43Z</time>
      </trkpt>
      <trkpt lat="44.24533" lon="0.63159">
        <ele>196.72692871094</ele>
        <time>2015-02-19T16:01:07Z</time>
      </trkpt>
      <trkpt lat="44.24522" lon="0.63191">
        <ele>195.28491210938</ele>
        <time>2015-02-19T16:01:32Z</time>
      </trkpt>
      <trkpt lat="44.24515" lon="0.63214">
        <ele>196.24633789062</ele>
        <time>2015-02-19T16:01:49Z</time>
      </trkpt>
      <trkpt lat="44.24509" lon="0.63235">
        <ele>195.28491210938</ele>
        <time>2015-02-19T16:02:04Z</time>
      </trkpt>
      <trkpt lat="44.24503" lon="0.63252">
        <ele>193.84301757812</ele>
        <time>2015-02-19T16:02:15Z</time>
      </trkpt>
      <trkpt lat="44.245" lon="0.63262">
        <ele>193.84301757812</ele>
        <time>2015-02-19T16:02:22Z</time>
      </trkpt>
      <trkpt lat="44.24491" lon="0.63288">
        <ele>192.40112304688</ele>
        <time>2015-02-19T16:02:42Z</time>
      </trkpt>
      <trkpt lat="44.24481" lon="0.63316">
        <ele>191.43957519531</ele>
        <time>2015-02-19T16:03:03Z</time>
      </trkpt>
      <trkpt lat="44.24468" lon="0.63337">
        <ele>192.88171386719</ele>
        <time>2015-02-19T16:03:21Z</time>
      </trkpt>
      <trkpt lat="44.24444" lon="0.63367">
        <ele>195.765625</ele>
        <time>2015-02-19T16:03:52Z</time>
      </trkpt>
      <trkpt lat="44.24429" lon="0.63384">
        <ele>192.88171386719</ele>
        <time>2015-02-19T16:04:10Z</time>
      </trkpt>
      <trkpt lat="44.24407" lon="0.63407">
        <ele>190.958984375</ele>
        <time>2015-02-19T16:04:35Z</time>
      </trkpt>
      <trkpt lat="44.24395" lon="0.63418">
        <ele>192.40112304688</ele>
        <time>2015-02-19T16:04:47Z</time>
      </trkpt>
      <trkpt lat="44.24385" lon="0.63423">
        <ele>190.958984375</ele>
        <time>2015-02-19T16:05:00Z</time>
      </trkpt>
      <trkpt lat="44.24383" lon="0.63425">
        <ele>190.958984375</ele>
        <time>2015-02-19T16:05:03Z</time>
      </trkpt>
      <trkpt lat="44.24386" lon="0.63437">
        <ele>188.07507324219</ele>
        <time>2015-02-19T16:05:17Z</time>
      </trkpt>
      <trkpt lat="44.24392" lon="0.63439">
        <ele>189.51696777344</ele>
        <time>2015-02-19T16:05:29Z</time>
      </trkpt>
      <trkpt lat="44.24399" lon="0.63435">
        <ele>189.03637695312</ele>
        <time>2015-02-19T16:05:46Z</time>
      </trkpt>
      <trkpt lat="44.24399" lon="0.63435">
        <ele>189.51696777344</ele>
        <time>2015-02-19T16:05:57Z</time>
      </trkpt>
      <trkpt lat="44.24396" lon="0.63438">
        <ele>191.92028808594</ele>
        <time>2015-02-19T16:06:15Z</time>
      </trkpt>
      <trkpt lat="44.24395" lon="0.63438">
        <ele>191.92028808594</ele>
        <time>2015-02-19T16:06:19Z</time>
      </trkpt>
    </trkseg>
  </trk>
  <rte>
    <name><![CDATA[Rapinet à Rapinet]]></name>
      <rtept lat="44.24448" lon="0.63139">
        <ele>194.16015625</ele>
        <name><![CDATA[Rapinet]]></name>
        <desc><![CDATA[Rapinet]]></desc>
        <cmt><![CDATA[Rapinet]]></cmt>
      </rtept>
    </rte>
</gpx>